<?xml version="1.0" encoding="UTF-8" standalone="no" ?>
<gpx xmlns="http://www.topografix.com/GPX/1/1" xmlns:xsi="http://www.w3.org/2001/XMLSchema-instance" xsi:schemaLocation="http://www.topografix.com/GPX/1/1 http://www.topografix.com/GPX/1/1/gpx.xsd" version="1.1" creator="VisuGPX - https://www.visugpx.com">
  <metadata>
    <name>Entre Lacapelle et Biron</name>
    <desc><![CDATA[Entre Lacapelle et Biron]]></desc>
  </metadata>
  <trk>
    <name><![CDATA[23-DEC-12 11:49:07]]></name>
    <trkseg>
      <trkpt lat="44.59997" lon="0.89563">
        <ele>165.48</ele>
        <time>2012-12-23T07:53:33Z</time>
      </trkpt>
      <trkpt lat="44.59997" lon="0.89567">
        <ele>168.37</ele>
        <time>2012-12-23T07:54:05Z</time>
      </trkpt>
      <trkpt lat="44.59999" lon="0.89568">
        <ele>165.96</ele>
        <time>2012-12-23T07:54:36Z</time>
      </trkpt>
      <trkpt lat="44.6" lon="0.89565">
        <ele>166.45</ele>
        <time>2012-12-23T07:54:54Z</time>
      </trkpt>
      <trkpt lat="44.60001" lon="0.89565">
        <ele>166.93</ele>
        <time>2012-12-23T07:55:11Z</time>
      </trkpt>
      <trkpt lat="44.60008" lon="0.89564">
        <ele>167.41</ele>
        <time>2012-12-23T07:55:17Z</time>
      </trkpt>
      <trkpt lat="44.60016" lon="0.89536">
        <ele>169.33</ele>
        <time>2012-12-23T07:55:29Z</time>
      </trkpt>
      <trkpt lat="44.60045" lon="0.89514">
        <ele>168.37</ele>
        <time>2012-12-23T07:55:44Z</time>
      </trkpt>
      <trkpt lat="44.60058" lon="0.89507">
        <ele>169.33</ele>
        <time>2012-12-23T07:55:50Z</time>
      </trkpt>
      <trkpt lat="44.60053" lon="0.89483">
        <ele>169.81</ele>
        <time>2012-12-23T07:55:58Z</time>
      </trkpt>
      <trkpt lat="44.60011" lon="0.89471">
        <ele>171.25</ele>
        <time>2012-12-23T07:56:13Z</time>
      </trkpt>
      <trkpt lat="44.59967" lon="0.89453">
        <ele>175.58</ele>
        <time>2012-12-23T07:56:29Z</time>
      </trkpt>
      <trkpt lat="44.59929" lon="0.89409">
        <ele>177.5</ele>
        <time>2012-12-23T07:56:44Z</time>
      </trkpt>
      <trkpt lat="44.5992" lon="0.89397">
        <ele>177.02</ele>
        <time>2012-12-23T07:56:47Z</time>
      </trkpt>
      <trkpt lat="44.59858" lon="0.89329">
        <ele>173.66</ele>
        <time>2012-12-23T07:57:00Z</time>
      </trkpt>
      <trkpt lat="44.59778" lon="0.8923">
        <ele>169.33</ele>
        <time>2012-12-23T07:57:15Z</time>
      </trkpt>
      <trkpt lat="44.59764" lon="0.89207">
        <ele>169.33</ele>
        <time>2012-12-23T07:57:18Z</time>
      </trkpt>
      <trkpt lat="44.59691" lon="0.89138">
        <ele>170.29</ele>
        <time>2012-12-23T07:57:32Z</time>
      </trkpt>
      <trkpt lat="44.59683" lon="0.89131">
        <ele>171.25</ele>
        <time>2012-12-23T07:57:34Z</time>
      </trkpt>
      <trkpt lat="44.59647" lon="0.89098">
        <ele>175.1</ele>
        <time>2012-12-23T07:57:44Z</time>
      </trkpt>
      <trkpt lat="44.59627" lon="0.89053">
        <ele>179.42</ele>
        <time>2012-12-23T07:57:58Z</time>
      </trkpt>
      <trkpt lat="44.59613" lon="0.89024">
        <ele>180.87</ele>
        <time>2012-12-23T07:58:15Z</time>
      </trkpt>
      <trkpt lat="44.59592" lon="0.88982">
        <ele>180.38</ele>
        <time>2012-12-23T07:58:30Z</time>
      </trkpt>
      <trkpt lat="44.59568" lon="0.88935">
        <ele>179.42</ele>
        <time>2012-12-23T07:58:41Z</time>
      </trkpt>
      <trkpt lat="44.59563" lon="0.88923">
        <ele>178.46</ele>
        <time>2012-12-23T07:58:43Z</time>
      </trkpt>
      <trkpt lat="44.59514" lon="0.88847">
        <ele>171.73</ele>
        <time>2012-12-23T07:58:54Z</time>
      </trkpt>
      <trkpt lat="44.5947" lon="0.88784">
        <ele>164.04</ele>
        <time>2012-12-23T07:59:03Z</time>
      </trkpt>
      <trkpt lat="44.59442" lon="0.88764">
        <ele>161.16</ele>
        <time>2012-12-23T07:59:09Z</time>
      </trkpt>
      <trkpt lat="44.59422" lon="0.88729">
        <ele>165.96</ele>
        <time>2012-12-23T07:59:20Z</time>
      </trkpt>
      <trkpt lat="44.59402" lon="0.88692">
        <ele>171.73</ele>
        <time>2012-12-23T07:59:31Z</time>
      </trkpt>
      <trkpt lat="44.59382" lon="0.88659">
        <ele>179.42</ele>
        <time>2012-12-23T07:59:43Z</time>
      </trkpt>
      <trkpt lat="44.59365" lon="0.88621">
        <ele>180.87</ele>
        <time>2012-12-23T07:59:55Z</time>
      </trkpt>
      <trkpt lat="44.59343" lon="0.88573">
        <ele>174.62</ele>
        <time>2012-12-23T08:00:06Z</time>
      </trkpt>
      <trkpt lat="44.59333" lon="0.8856">
        <ele>169.81</ele>
        <time>2012-12-23T08:00:17Z</time>
      </trkpt>
      <trkpt lat="44.5933" lon="0.88556">
        <ele>167.41</ele>
        <time>2012-12-23T08:00:39Z</time>
      </trkpt>
      <trkpt lat="44.59329" lon="0.88518">
        <ele>165</ele>
        <time>2012-12-23T08:00:47Z</time>
      </trkpt>
      <trkpt lat="44.59317" lon="0.88412">
        <ele>157.79</ele>
        <time>2012-12-23T08:00:57Z</time>
      </trkpt>
      <trkpt lat="44.59303" lon="0.88367">
        <ele>156.83</ele>
        <time>2012-12-23T08:01:05Z</time>
      </trkpt>
      <trkpt lat="44.59269" lon="0.88335">
        <ele>156.35</ele>
        <time>2012-12-23T08:01:17Z</time>
      </trkpt>
      <trkpt lat="44.59253" lon="0.88316">
        <ele>154.91</ele>
        <time>2012-12-23T08:01:23Z</time>
      </trkpt>
      <trkpt lat="44.59237" lon="0.88308">
        <ele>153.95</ele>
        <time>2012-12-23T08:01:27Z</time>
      </trkpt>
      <trkpt lat="44.59194" lon="0.88298">
        <ele>155.39</ele>
        <time>2012-12-23T08:01:39Z</time>
      </trkpt>
      <trkpt lat="44.59148" lon="0.88293">
        <ele>156.83</ele>
        <time>2012-12-23T08:01:52Z</time>
      </trkpt>
      <trkpt lat="44.59129" lon="0.88288">
        <ele>155.39</ele>
        <time>2012-12-23T08:01:57Z</time>
      </trkpt>
      <trkpt lat="44.59064" lon="0.8826">
        <ele>156.35</ele>
        <time>2012-12-23T08:02:11Z</time>
      </trkpt>
      <trkpt lat="44.59027" lon="0.88238">
        <ele>159.24</ele>
        <time>2012-12-23T08:02:25Z</time>
      </trkpt>
      <trkpt lat="44.59014" lon="0.88202">
        <ele>163.08</ele>
        <time>2012-12-23T08:02:36Z</time>
      </trkpt>
      <trkpt lat="44.58995" lon="0.88181">
        <ele>165.96</ele>
        <time>2012-12-23T08:02:49Z</time>
      </trkpt>
      <trkpt lat="44.58986" lon="0.88175">
        <ele>165.48</ele>
        <time>2012-12-23T08:02:55Z</time>
      </trkpt>
      <trkpt lat="44.58987" lon="0.88165">
        <ele>165.96</ele>
        <time>2012-12-23T08:03:00Z</time>
      </trkpt>
      <trkpt lat="44.59021" lon="0.88134">
        <ele>168.37</ele>
        <time>2012-12-23T08:03:17Z</time>
      </trkpt>
      <trkpt lat="44.59032" lon="0.88124">
        <ele>168.37</ele>
        <time>2012-12-23T08:03:22Z</time>
      </trkpt>
      <trkpt lat="44.59049" lon="0.88133">
        <ele>168.37</ele>
        <time>2012-12-23T08:03:28Z</time>
      </trkpt>
      <trkpt lat="44.59093" lon="0.88149">
        <ele>168.85</ele>
        <time>2012-12-23T08:03:43Z</time>
      </trkpt>
      <trkpt lat="44.5912" lon="0.88119">
        <ele>171.73</ele>
        <time>2012-12-23T08:03:55Z</time>
      </trkpt>
      <trkpt lat="44.59133" lon="0.88091">
        <ele>173.17</ele>
        <time>2012-12-23T08:04:03Z</time>
      </trkpt>
      <trkpt lat="44.59145" lon="0.88069">
        <ele>174.62</ele>
        <time>2012-12-23T08:04:10Z</time>
      </trkpt>
      <trkpt lat="44.59175" lon="0.88021">
        <ele>177.98</ele>
        <time>2012-12-23T08:04:25Z</time>
      </trkpt>
      <trkpt lat="44.59207" lon="0.8798">
        <ele>181.83</ele>
        <time>2012-12-23T08:04:39Z</time>
      </trkpt>
      <trkpt lat="44.59236" lon="0.87941">
        <ele>185.67</ele>
        <time>2012-12-23T08:04:52Z</time>
      </trkpt>
      <trkpt lat="44.59258" lon="0.87903">
        <ele>189.52</ele>
        <time>2012-12-23T08:05:04Z</time>
      </trkpt>
      <trkpt lat="44.59287" lon="0.87873">
        <ele>193.84</ele>
        <time>2012-12-23T08:05:18Z</time>
      </trkpt>
      <trkpt lat="44.59307" lon="0.87856">
        <ele>196.25</ele>
        <time>2012-12-23T08:05:31Z</time>
      </trkpt>
      <trkpt lat="44.5932" lon="0.87848">
        <ele>197.69</ele>
        <time>2012-12-23T08:05:46Z</time>
      </trkpt>
      <trkpt lat="44.59321" lon="0.87848">
        <ele>198.65</ele>
        <time>2012-12-23T08:06:09Z</time>
      </trkpt>
      <trkpt lat="44.59318" lon="0.87846">
        <ele>197.21</ele>
        <time>2012-12-23T08:06:34Z</time>
      </trkpt>
      <trkpt lat="44.59318" lon="0.87846">
        <ele>198.65</ele>
        <time>2012-12-23T08:06:57Z</time>
      </trkpt>
      <trkpt lat="44.59318" lon="0.87848">
        <ele>201.53</ele>
        <time>2012-12-23T08:07:24Z</time>
      </trkpt>
      <trkpt lat="44.59322" lon="0.87849">
        <ele>201.53</ele>
        <time>2012-12-23T08:07:47Z</time>
      </trkpt>
      <trkpt lat="44.59322" lon="0.87849">
        <ele>201.53</ele>
        <time>2012-12-23T08:08:07Z</time>
      </trkpt>
      <trkpt lat="44.59321" lon="0.87849">
        <ele>201.53</ele>
        <time>2012-12-23T08:08:33Z</time>
      </trkpt>
      <trkpt lat="44.59324" lon="0.87847">
        <ele>200.57</ele>
        <time>2012-12-23T08:08:58Z</time>
      </trkpt>
      <trkpt lat="44.59326" lon="0.87844">
        <ele>201.05</ele>
        <time>2012-12-23T08:09:04Z</time>
      </trkpt>
      <trkpt lat="44.59361" lon="0.87823">
        <ele>202.01</ele>
        <time>2012-12-23T08:09:19Z</time>
      </trkpt>
      <trkpt lat="44.59375" lon="0.87814">
        <ele>202.01</ele>
        <time>2012-12-23T08:09:25Z</time>
      </trkpt>
      <trkpt lat="44.59412" lon="0.87834">
        <ele>202.01</ele>
        <time>2012-12-23T08:09:37Z</time>
      </trkpt>
      <trkpt lat="44.59443" lon="0.87832">
        <ele>200.57</ele>
        <time>2012-12-23T08:09:46Z</time>
      </trkpt>
      <trkpt lat="44.59459" lon="0.87832">
        <ele>200.09</ele>
        <time>2012-12-23T08:09:50Z</time>
      </trkpt>
      <trkpt lat="44.59501" lon="0.87847">
        <ele>199.13</ele>
        <time>2012-12-23T08:09:59Z</time>
      </trkpt>
      <trkpt lat="44.59529" lon="0.87865">
        <ele>201.53</ele>
        <time>2012-12-23T08:10:06Z</time>
      </trkpt>
      <trkpt lat="44.5954" lon="0.87848">
        <ele>203.46</ele>
        <time>2012-12-23T08:10:12Z</time>
      </trkpt>
      <trkpt lat="44.59559" lon="0.87791">
        <ele>203.46</ele>
        <time>2012-12-23T08:10:24Z</time>
      </trkpt>
      <trkpt lat="44.59567" lon="0.87763">
        <ele>202.01</ele>
        <time>2012-12-23T08:10:29Z</time>
      </trkpt>
      <trkpt lat="44.59582" lon="0.87698">
        <ele>197.21</ele>
        <time>2012-12-23T08:10:40Z</time>
      </trkpt>
      <trkpt lat="44.59591" lon="0.8767">
        <ele>195.77</ele>
        <time>2012-12-23T08:10:44Z</time>
      </trkpt>
      <trkpt lat="44.59626" lon="0.87569">
        <ele>191.44</ele>
        <time>2012-12-23T08:10:57Z</time>
      </trkpt>
      <trkpt lat="44.59633" lon="0.87551">
        <ele>190.48</ele>
        <time>2012-12-23T08:10:59Z</time>
      </trkpt>
      <trkpt lat="44.59666" lon="0.87507">
        <ele>187.11</ele>
        <time>2012-12-23T08:11:06Z</time>
      </trkpt>
      <trkpt lat="44.59732" lon="0.87421">
        <ele>178.94</ele>
        <time>2012-12-23T08:11:18Z</time>
      </trkpt>
      <trkpt lat="44.59791" lon="0.87321">
        <ele>169.81</ele>
        <time>2012-12-23T08:11:30Z</time>
      </trkpt>
      <trkpt lat="44.59853" lon="0.87227">
        <ele>165.96</ele>
        <time>2012-12-23T08:11:42Z</time>
      </trkpt>
      <trkpt lat="44.59864" lon="0.87207">
        <ele>165.96</ele>
        <time>2012-12-23T08:11:46Z</time>
      </trkpt>
      <trkpt lat="44.59879" lon="0.87192">
        <ele>165.48</ele>
        <time>2012-12-23T08:11:50Z</time>
      </trkpt>
      <trkpt lat="44.59902" lon="0.87189">
        <ele>165</ele>
        <time>2012-12-23T08:11:55Z</time>
      </trkpt>
      <trkpt lat="44.59947" lon="0.87223">
        <ele>167.41</ele>
        <time>2012-12-23T08:12:09Z</time>
      </trkpt>
      <trkpt lat="44.59979" lon="0.87275">
        <ele>165.96</ele>
        <time>2012-12-23T08:12:20Z</time>
      </trkpt>
      <trkpt lat="44.60006" lon="0.87294">
        <ele>162.6</ele>
        <time>2012-12-23T08:12:25Z</time>
      </trkpt>
      <trkpt lat="44.60027" lon="0.87298">
        <ele>160.68</ele>
        <time>2012-12-23T08:12:30Z</time>
      </trkpt>
      <trkpt lat="44.60037" lon="0.8728">
        <ele>158.27</ele>
        <time>2012-12-23T08:12:43Z</time>
      </trkpt>
      <trkpt lat="44.60042" lon="0.87277">
        <ele>157.31</ele>
        <time>2012-12-23T08:12:49Z</time>
      </trkpt>
      <trkpt lat="44.60051" lon="0.87282">
        <ele>155.87</ele>
        <time>2012-12-23T08:12:59Z</time>
      </trkpt>
      <trkpt lat="44.60052" lon="0.87279">
        <ele>156.35</ele>
        <time>2012-12-23T08:13:02Z</time>
      </trkpt>
      <trkpt lat="44.6004" lon="0.87249">
        <ele>157.79</ele>
        <time>2012-12-23T08:13:14Z</time>
      </trkpt>
      <trkpt lat="44.60039" lon="0.87179">
        <ele>157.31</ele>
        <time>2012-12-23T08:13:26Z</time>
      </trkpt>
      <trkpt lat="44.6003" lon="0.8714">
        <ele>156.83</ele>
        <time>2012-12-23T08:13:34Z</time>
      </trkpt>
      <trkpt lat="44.6003" lon="0.87122">
        <ele>156.83</ele>
        <time>2012-12-23T08:13:38Z</time>
      </trkpt>
      <trkpt lat="44.60023" lon="0.87108">
        <ele>156.83</ele>
        <time>2012-12-23T08:13:42Z</time>
      </trkpt>
      <trkpt lat="44.60034" lon="0.87094">
        <ele>157.31</ele>
        <time>2012-12-23T08:13:51Z</time>
      </trkpt>
      <trkpt lat="44.60036" lon="0.87094">
        <ele>157.31</ele>
        <time>2012-12-23T08:13:52Z</time>
      </trkpt>
      <trkpt lat="44.60071" lon="0.87084">
        <ele>164.04</ele>
        <time>2012-12-23T08:14:07Z</time>
      </trkpt>
      <trkpt lat="44.60111" lon="0.87072">
        <ele>174.14</ele>
        <time>2012-12-23T08:14:22Z</time>
      </trkpt>
      <trkpt lat="44.60149" lon="0.87054">
        <ele>177.02</ele>
        <time>2012-12-23T08:14:36Z</time>
      </trkpt>
      <trkpt lat="44.60159" lon="0.87043">
        <ele>176.54</ele>
        <time>2012-12-23T08:14:39Z</time>
      </trkpt>
      <trkpt lat="44.60203" lon="0.87011">
        <ele>176.54</ele>
        <time>2012-12-23T08:14:52Z</time>
      </trkpt>
      <trkpt lat="44.60236" lon="0.86998">
        <ele>178.94</ele>
        <time>2012-12-23T08:15:02Z</time>
      </trkpt>
      <trkpt lat="44.60283" lon="0.86978">
        <ele>182.31</ele>
        <time>2012-12-23T08:15:16Z</time>
      </trkpt>
      <trkpt lat="44.60311" lon="0.86962">
        <ele>182.31</ele>
        <time>2012-12-23T08:15:27Z</time>
      </trkpt>
      <trkpt lat="44.60319" lon="0.86944">
        <ele>181.35</ele>
        <time>2012-12-23T08:15:39Z</time>
      </trkpt>
      <trkpt lat="44.60317" lon="0.86941">
        <ele>182.79</ele>
        <time>2012-12-23T08:15:56Z</time>
      </trkpt>
      <trkpt lat="44.60317" lon="0.86938">
        <ele>181.35</ele>
        <time>2012-12-23T08:16:20Z</time>
      </trkpt>
      <trkpt lat="44.60318" lon="0.86935">
        <ele>184.23</ele>
        <time>2012-12-23T08:16:41Z</time>
      </trkpt>
      <trkpt lat="44.60317" lon="0.86897">
        <ele>179.9</ele>
        <time>2012-12-23T08:16:50Z</time>
      </trkpt>
      <trkpt lat="44.60314" lon="0.86801">
        <ele>170.29</ele>
        <time>2012-12-23T08:17:01Z</time>
      </trkpt>
      <trkpt lat="44.60313" lon="0.86766">
        <ele>166.45</ele>
        <time>2012-12-23T08:17:05Z</time>
      </trkpt>
      <trkpt lat="44.60311" lon="0.86748">
        <ele>165</ele>
        <time>2012-12-23T08:17:07Z</time>
      </trkpt>
      <trkpt lat="44.6031" lon="0.86727">
        <ele>162.6</ele>
        <time>2012-12-23T08:17:10Z</time>
      </trkpt>
      <trkpt lat="44.60322" lon="0.86685">
        <ele>160.2</ele>
        <time>2012-12-23T08:17:22Z</time>
      </trkpt>
      <trkpt lat="44.60329" lon="0.86642">
        <ele>163.08</ele>
        <time>2012-12-23T08:17:33Z</time>
      </trkpt>
      <trkpt lat="44.60327" lon="0.86581">
        <ele>161.64</ele>
        <time>2012-12-23T08:17:41Z</time>
      </trkpt>
      <trkpt lat="44.60311" lon="0.8654">
        <ele>159.24</ele>
        <time>2012-12-23T08:17:46Z</time>
      </trkpt>
      <trkpt lat="44.60284" lon="0.86514">
        <ele>158.75</ele>
        <time>2012-12-23T08:17:53Z</time>
      </trkpt>
      <trkpt lat="44.60279" lon="0.86512">
        <ele>159.24</ele>
        <time>2012-12-23T08:17:54Z</time>
      </trkpt>
      <trkpt lat="44.60259" lon="0.86505">
        <ele>162.12</ele>
        <time>2012-12-23T08:17:59Z</time>
      </trkpt>
      <trkpt lat="44.60258" lon="0.86468">
        <ele>164.04</ele>
        <time>2012-12-23T08:18:07Z</time>
      </trkpt>
      <trkpt lat="44.60268" lon="0.8644">
        <ele>164.04</ele>
        <time>2012-12-23T08:18:12Z</time>
      </trkpt>
      <trkpt lat="44.60282" lon="0.86404">
        <ele>164.04</ele>
        <time>2012-12-23T08:18:18Z</time>
      </trkpt>
      <trkpt lat="44.60298" lon="0.86372">
        <ele>165</ele>
        <time>2012-12-23T08:18:24Z</time>
      </trkpt>
      <trkpt lat="44.60321" lon="0.86349">
        <ele>165.48</ele>
        <time>2012-12-23T08:18:32Z</time>
      </trkpt>
      <trkpt lat="44.60323" lon="0.86347">
        <ele>165.96</ele>
        <time>2012-12-23T08:18:33Z</time>
      </trkpt>
      <trkpt lat="44.60361" lon="0.86314">
        <ele>170.77</ele>
        <time>2012-12-23T08:18:46Z</time>
      </trkpt>
      <trkpt lat="44.60401" lon="0.86304">
        <ele>172.69</ele>
        <time>2012-12-23T08:18:57Z</time>
      </trkpt>
      <trkpt lat="44.60413" lon="0.86305">
        <ele>173.17</ele>
        <time>2012-12-23T08:19:00Z</time>
      </trkpt>
      <trkpt lat="44.60441" lon="0.86331">
        <ele>176.06</ele>
        <time>2012-12-23T08:19:10Z</time>
      </trkpt>
      <trkpt lat="44.60446" lon="0.86333">
        <ele>177.98</ele>
        <time>2012-12-23T08:19:14Z</time>
      </trkpt>
      <trkpt lat="44.60449" lon="0.86342">
        <ele>179.42</ele>
        <time>2012-12-23T08:19:27Z</time>
      </trkpt>
      <trkpt lat="44.60452" lon="0.86344">
        <ele>179.9</ele>
        <time>2012-12-23T08:19:31Z</time>
      </trkpt>
      <trkpt lat="44.60465" lon="0.86352">
        <ele>183.27</ele>
        <time>2012-12-23T08:19:46Z</time>
      </trkpt>
      <trkpt lat="44.60468" lon="0.86352">
        <ele>184.23</ele>
        <time>2012-12-23T08:19:50Z</time>
      </trkpt>
      <trkpt lat="44.60485" lon="0.86361">
        <ele>187.59</ele>
        <time>2012-12-23T08:20:08Z</time>
      </trkpt>
      <trkpt lat="44.60488" lon="0.86362">
        <ele>186.63</ele>
        <time>2012-12-23T08:20:27Z</time>
      </trkpt>
      <trkpt lat="44.60491" lon="0.86365">
        <ele>186.15</ele>
        <time>2012-12-23T08:20:46Z</time>
      </trkpt>
      <trkpt lat="44.60491" lon="0.86366">
        <ele>186.63</ele>
        <time>2012-12-23T08:21:07Z</time>
      </trkpt>
      <trkpt lat="44.60492" lon="0.86368">
        <ele>187.11</ele>
        <time>2012-12-23T08:21:26Z</time>
      </trkpt>
      <trkpt lat="44.60494" lon="0.86367">
        <ele>186.63</ele>
        <time>2012-12-23T08:21:53Z</time>
      </trkpt>
      <trkpt lat="44.60495" lon="0.86366">
        <ele>185.67</ele>
        <time>2012-12-23T08:22:21Z</time>
      </trkpt>
      <trkpt lat="44.60494" lon="0.86364">
        <ele>186.63</ele>
        <time>2012-12-23T08:22:44Z</time>
      </trkpt>
      <trkpt lat="44.60491" lon="0.86365">
        <ele>188.56</ele>
        <time>2012-12-23T08:23:04Z</time>
      </trkpt>
      <trkpt lat="44.60492" lon="0.86365">
        <ele>188.56</ele>
        <time>2012-12-23T08:23:30Z</time>
      </trkpt>
      <trkpt lat="44.60497" lon="0.86366">
        <ele>186.15</ele>
        <time>2012-12-23T08:23:37Z</time>
      </trkpt>
      <trkpt lat="44.60511" lon="0.86372">
        <ele>186.15</ele>
        <time>2012-12-23T08:23:48Z</time>
      </trkpt>
      <trkpt lat="44.60537" lon="0.86375">
        <ele>187.11</ele>
        <time>2012-12-23T08:24:00Z</time>
      </trkpt>
      <trkpt lat="44.60542" lon="0.86377">
        <ele>187.59</ele>
        <time>2012-12-23T08:24:02Z</time>
      </trkpt>
      <trkpt lat="44.6057" lon="0.86377">
        <ele>190.96</ele>
        <time>2012-12-23T08:24:15Z</time>
      </trkpt>
      <trkpt lat="44.60599" lon="0.86386">
        <ele>190.48</ele>
        <time>2012-12-23T08:24:25Z</time>
      </trkpt>
      <trkpt lat="44.60616" lon="0.86384">
        <ele>190</ele>
        <time>2012-12-23T08:24:30Z</time>
      </trkpt>
      <trkpt lat="44.60633" lon="0.86397">
        <ele>190</ele>
        <time>2012-12-23T08:24:36Z</time>
      </trkpt>
      <trkpt lat="44.60646" lon="0.86386">
        <ele>190</ele>
        <time>2012-12-23T08:24:42Z</time>
      </trkpt>
      <trkpt lat="44.60655" lon="0.86329">
        <ele>189.52</ele>
        <time>2012-12-23T08:24:57Z</time>
      </trkpt>
      <trkpt lat="44.60659" lon="0.86308">
        <ele>189.04</ele>
        <time>2012-12-23T08:25:03Z</time>
      </trkpt>
      <trkpt lat="44.60667" lon="0.86309">
        <ele>188.08</ele>
        <time>2012-12-23T08:25:14Z</time>
      </trkpt>
      <trkpt lat="44.60671" lon="0.86314">
        <ele>186.15</ele>
        <time>2012-12-23T08:25:37Z</time>
      </trkpt>
      <trkpt lat="44.60689" lon="0.86339">
        <ele>187.11</ele>
        <time>2012-12-23T08:25:46Z</time>
      </trkpt>
      <trkpt lat="44.60716" lon="0.86379">
        <ele>187.11</ele>
        <time>2012-12-23T08:25:53Z</time>
      </trkpt>
      <trkpt lat="44.60722" lon="0.86402">
        <ele>185.19</ele>
        <time>2012-12-23T08:25:57Z</time>
      </trkpt>
      <trkpt lat="44.60719" lon="0.86422">
        <ele>184.23</ele>
        <time>2012-12-23T08:26:00Z</time>
      </trkpt>
      <trkpt lat="44.60711" lon="0.8646">
        <ele>181.83</ele>
        <time>2012-12-23T08:26:05Z</time>
      </trkpt>
      <trkpt lat="44.60704" lon="0.86492">
        <ele>179.9</ele>
        <time>2012-12-23T08:26:09Z</time>
      </trkpt>
      <trkpt lat="44.60694" lon="0.86518">
        <ele>177.98</ele>
        <time>2012-12-23T08:26:13Z</time>
      </trkpt>
      <trkpt lat="44.6067" lon="0.86566">
        <ele>177.02</ele>
        <time>2012-12-23T08:26:24Z</time>
      </trkpt>
      <trkpt lat="44.60641" lon="0.86584">
        <ele>177.5</ele>
        <time>2012-12-23T08:26:33Z</time>
      </trkpt>
      <trkpt lat="44.60618" lon="0.86595">
        <ele>177.98</ele>
        <time>2012-12-23T08:26:40Z</time>
      </trkpt>
      <trkpt lat="44.60613" lon="0.86599">
        <ele>177.98</ele>
        <time>2012-12-23T08:26:45Z</time>
      </trkpt>
      <trkpt lat="44.60603" lon="0.86619">
        <ele>179.42</ele>
        <time>2012-12-23T08:26:55Z</time>
      </trkpt>
      <trkpt lat="44.60585" lon="0.86651">
        <ele>176.06</ele>
        <time>2012-12-23T08:27:06Z</time>
      </trkpt>
      <trkpt lat="44.60577" lon="0.86668">
        <ele>174.62</ele>
        <time>2012-12-23T08:27:11Z</time>
      </trkpt>
      <trkpt lat="44.60585" lon="0.86675">
        <ele>176.06</ele>
        <time>2012-12-23T08:27:17Z</time>
      </trkpt>
      <trkpt lat="44.60611" lon="0.86678">
        <ele>178.94</ele>
        <time>2012-12-23T08:27:30Z</time>
      </trkpt>
      <trkpt lat="44.60637" lon="0.86681">
        <ele>181.83</ele>
        <time>2012-12-23T08:27:45Z</time>
      </trkpt>
      <trkpt lat="44.60672" lon="0.86694">
        <ele>186.63</ele>
        <time>2012-12-23T08:28:02Z</time>
      </trkpt>
      <trkpt lat="44.60703" lon="0.86717">
        <ele>186.63</ele>
        <time>2012-12-23T08:28:15Z</time>
      </trkpt>
      <trkpt lat="44.60728" lon="0.86738">
        <ele>188.56</ele>
        <time>2012-12-23T08:28:28Z</time>
      </trkpt>
      <trkpt lat="44.60763" lon="0.86761">
        <ele>191.44</ele>
        <time>2012-12-23T08:28:42Z</time>
      </trkpt>
      <trkpt lat="44.60809" lon="0.86777">
        <ele>193.84</ele>
        <time>2012-12-23T08:28:57Z</time>
      </trkpt>
      <trkpt lat="44.60836" lon="0.86778">
        <ele>193.84</ele>
        <time>2012-12-23T08:29:10Z</time>
      </trkpt>
      <trkpt lat="44.60838" lon="0.86773">
        <ele>192.88</ele>
        <time>2012-12-23T08:29:23Z</time>
      </trkpt>
      <trkpt lat="44.6084" lon="0.86771">
        <ele>192.4</ele>
        <time>2012-12-23T08:29:39Z</time>
      </trkpt>
      <trkpt lat="44.60838" lon="0.86773">
        <ele>191.92</ele>
        <time>2012-12-23T08:29:56Z</time>
      </trkpt>
      <trkpt lat="44.60839" lon="0.86772">
        <ele>190.96</ele>
        <time>2012-12-23T08:30:14Z</time>
      </trkpt>
      <trkpt lat="44.60841" lon="0.86776">
        <ele>192.4</ele>
        <time>2012-12-23T08:30:37Z</time>
      </trkpt>
      <trkpt lat="44.60848" lon="0.86766">
        <ele>191.44</ele>
        <time>2012-12-23T08:30:59Z</time>
      </trkpt>
      <trkpt lat="44.60886" lon="0.86732">
        <ele>187.59</ele>
        <time>2012-12-23T08:31:07Z</time>
      </trkpt>
      <trkpt lat="44.60892" lon="0.86727">
        <ele>187.11</ele>
        <time>2012-12-23T08:31:08Z</time>
      </trkpt>
      <trkpt lat="44.60932" lon="0.86711">
        <ele>183.27</ele>
        <time>2012-12-23T08:31:14Z</time>
      </trkpt>
      <trkpt lat="44.60981" lon="0.86677">
        <ele>182.31</ele>
        <time>2012-12-23T08:31:24Z</time>
      </trkpt>
      <trkpt lat="44.61029" lon="0.86641">
        <ele>181.35</ele>
        <time>2012-12-23T08:31:34Z</time>
      </trkpt>
      <trkpt lat="44.61076" lon="0.86623">
        <ele>183.27</ele>
        <time>2012-12-23T08:31:45Z</time>
      </trkpt>
      <trkpt lat="44.61118" lon="0.86596">
        <ele>185.19</ele>
        <time>2012-12-23T08:31:57Z</time>
      </trkpt>
      <trkpt lat="44.61123" lon="0.8659">
        <ele>185.19</ele>
        <time>2012-12-23T08:31:59Z</time>
      </trkpt>
      <trkpt lat="44.61133" lon="0.86597">
        <ele>184.23</ele>
        <time>2012-12-23T08:32:04Z</time>
      </trkpt>
      <trkpt lat="44.61136" lon="0.86625">
        <ele>182.79</ele>
        <time>2012-12-23T08:32:14Z</time>
      </trkpt>
      <trkpt lat="44.61134" lon="0.86649">
        <ele>181.83</ele>
        <time>2012-12-23T08:32:18Z</time>
      </trkpt>
      <trkpt lat="44.61123" lon="0.86691">
        <ele>177.5</ele>
        <time>2012-12-23T08:32:26Z</time>
      </trkpt>
      <trkpt lat="44.61114" lon="0.86728">
        <ele>174.62</ele>
        <time>2012-12-23T08:32:34Z</time>
      </trkpt>
      <trkpt lat="44.61107" lon="0.86757">
        <ele>174.14</ele>
        <time>2012-12-23T08:32:38Z</time>
      </trkpt>
      <trkpt lat="44.61093" lon="0.86817">
        <ele>171.73</ele>
        <time>2012-12-23T08:32:48Z</time>
      </trkpt>
      <trkpt lat="44.6109" lon="0.86829">
        <ele>171.25</ele>
        <time>2012-12-23T08:32:50Z</time>
      </trkpt>
      <trkpt lat="44.61082" lon="0.86865">
        <ele>169.33</ele>
        <time>2012-12-23T08:32:56Z</time>
      </trkpt>
      <trkpt lat="44.61079" lon="0.86881">
        <ele>168.37</ele>
        <time>2012-12-23T08:32:59Z</time>
      </trkpt>
      <trkpt lat="44.61071" lon="0.86894">
        <ele>167.41</ele>
        <time>2012-12-23T08:33:03Z</time>
      </trkpt>
      <trkpt lat="44.61056" lon="0.86922">
        <ele>165.48</ele>
        <time>2012-12-23T08:33:10Z</time>
      </trkpt>
      <trkpt lat="44.61049" lon="0.86957">
        <ele>163.56</ele>
        <time>2012-12-23T08:33:15Z</time>
      </trkpt>
      <trkpt lat="44.61047" lon="0.86974">
        <ele>162.12</ele>
        <time>2012-12-23T08:33:17Z</time>
      </trkpt>
      <trkpt lat="44.61028" lon="0.87019">
        <ele>158.27</ele>
        <time>2012-12-23T08:33:26Z</time>
      </trkpt>
      <trkpt lat="44.61029" lon="0.87041">
        <ele>157.31</ele>
        <time>2012-12-23T08:33:31Z</time>
      </trkpt>
      <trkpt lat="44.61031" lon="0.87053">
        <ele>156.35</ele>
        <time>2012-12-23T08:33:33Z</time>
      </trkpt>
      <trkpt lat="44.61035" lon="0.87082">
        <ele>152.51</ele>
        <time>2012-12-23T08:33:37Z</time>
      </trkpt>
      <trkpt lat="44.61033" lon="0.87115">
        <ele>147.22</ele>
        <time>2012-12-23T08:33:43Z</time>
      </trkpt>
      <trkpt lat="44.61043" lon="0.8714">
        <ele>153.95</ele>
        <time>2012-12-23T08:33:55Z</time>
      </trkpt>
      <trkpt lat="44.61046" lon="0.87144">
        <ele>158.75</ele>
        <time>2012-12-23T08:34:14Z</time>
      </trkpt>
      <trkpt lat="44.61047" lon="0.87145">
        <ele>159.72</ele>
        <time>2012-12-23T08:34:29Z</time>
      </trkpt>
      <trkpt lat="44.61049" lon="0.87146">
        <ele>161.16</ele>
        <time>2012-12-23T08:34:51Z</time>
      </trkpt>
      <trkpt lat="44.61049" lon="0.87147">
        <ele>160.68</ele>
        <time>2012-12-23T08:35:10Z</time>
      </trkpt>
      <trkpt lat="44.61062" lon="0.87154">
        <ele>161.16</ele>
        <time>2012-12-23T08:35:29Z</time>
      </trkpt>
      <trkpt lat="44.61094" lon="0.87177">
        <ele>166.45</ele>
        <time>2012-12-23T08:35:42Z</time>
      </trkpt>
      <trkpt lat="44.61137" lon="0.87199">
        <ele>174.62</ele>
        <time>2012-12-23T08:35:57Z</time>
      </trkpt>
      <trkpt lat="44.61176" lon="0.87224">
        <ele>178.94</ele>
        <time>2012-12-23T08:36:09Z</time>
      </trkpt>
      <trkpt lat="44.61197" lon="0.87237">
        <ele>177.98</ele>
        <time>2012-12-23T08:36:13Z</time>
      </trkpt>
      <trkpt lat="44.61227" lon="0.87265">
        <ele>177.02</ele>
        <time>2012-12-23T08:36:19Z</time>
      </trkpt>
      <trkpt lat="44.61252" lon="0.87279">
        <ele>177.02</ele>
        <time>2012-12-23T08:36:24Z</time>
      </trkpt>
      <trkpt lat="44.61275" lon="0.87283">
        <ele>176.06</ele>
        <time>2012-12-23T08:36:28Z</time>
      </trkpt>
      <trkpt lat="44.61291" lon="0.8728">
        <ele>175.1</ele>
        <time>2012-12-23T08:36:31Z</time>
      </trkpt>
      <trkpt lat="44.61333" lon="0.87267">
        <ele>173.17</ele>
        <time>2012-12-23T08:36:38Z</time>
      </trkpt>
      <trkpt lat="44.61359" lon="0.87269">
        <ele>172.21</ele>
        <time>2012-12-23T08:36:43Z</time>
      </trkpt>
      <trkpt lat="44.61392" lon="0.87285">
        <ele>172.69</ele>
        <time>2012-12-23T08:36:51Z</time>
      </trkpt>
      <trkpt lat="44.61413" lon="0.87294">
        <ele>173.66</ele>
        <time>2012-12-23T08:36:56Z</time>
      </trkpt>
      <trkpt lat="44.61455" lon="0.87298">
        <ele>173.17</ele>
        <time>2012-12-23T08:37:03Z</time>
      </trkpt>
      <trkpt lat="44.61508" lon="0.87318">
        <ele>172.69</ele>
        <time>2012-12-23T08:37:12Z</time>
      </trkpt>
      <trkpt lat="44.61582" lon="0.87361">
        <ele>174.14</ele>
        <time>2012-12-23T08:37:27Z</time>
      </trkpt>
      <trkpt lat="44.616" lon="0.87365">
        <ele>173.66</ele>
        <time>2012-12-23T08:37:32Z</time>
      </trkpt>
      <trkpt lat="44.61603" lon="0.87366">
        <ele>171.73</ele>
        <time>2012-12-23T08:37:43Z</time>
      </trkpt>
      <trkpt lat="44.61608" lon="0.87374">
        <ele>170.29</ele>
        <time>2012-12-23T08:37:52Z</time>
      </trkpt>
      <trkpt lat="44.61625" lon="0.87386">
        <ele>168.85</ele>
        <time>2012-12-23T08:37:56Z</time>
      </trkpt>
      <trkpt lat="44.61663" lon="0.87408">
        <ele>166.93</ele>
        <time>2012-12-23T08:38:02Z</time>
      </trkpt>
      <trkpt lat="44.61686" lon="0.87423">
        <ele>165.48</ele>
        <time>2012-12-23T08:38:06Z</time>
      </trkpt>
      <trkpt lat="44.61698" lon="0.87435">
        <ele>165.96</ele>
        <time>2012-12-23T08:38:09Z</time>
      </trkpt>
      <trkpt lat="44.61706" lon="0.87442">
        <ele>166.45</ele>
        <time>2012-12-23T08:38:11Z</time>
      </trkpt>
      <trkpt lat="44.61719" lon="0.87453">
        <ele>168.37</ele>
        <time>2012-12-23T08:38:15Z</time>
      </trkpt>
      <trkpt lat="44.61752" lon="0.87458">
        <ele>175.58</ele>
        <time>2012-12-23T08:38:23Z</time>
      </trkpt>
      <trkpt lat="44.6178" lon="0.87452">
        <ele>184.23</ele>
        <time>2012-12-23T08:38:31Z</time>
      </trkpt>
      <trkpt lat="44.61805" lon="0.87451">
        <ele>190</ele>
        <time>2012-12-23T08:38:42Z</time>
      </trkpt>
      <trkpt lat="44.61809" lon="0.87452">
        <ele>194.8</ele>
        <time>2012-12-23T08:39:07Z</time>
      </trkpt>
      <trkpt lat="44.6181" lon="0.87454">
        <ele>195.77</ele>
        <time>2012-12-23T08:39:32Z</time>
      </trkpt>
      <trkpt lat="44.61813" lon="0.87454">
        <ele>193.36</ele>
        <time>2012-12-23T08:40:00Z</time>
      </trkpt>
      <trkpt lat="44.61816" lon="0.87456">
        <ele>193.36</ele>
        <time>2012-12-23T08:40:23Z</time>
      </trkpt>
      <trkpt lat="44.61822" lon="0.87453">
        <ele>192.88</ele>
        <time>2012-12-23T08:40:43Z</time>
      </trkpt>
      <trkpt lat="44.61825" lon="0.87449">
        <ele>192.4</ele>
        <time>2012-12-23T08:40:47Z</time>
      </trkpt>
      <trkpt lat="44.61839" lon="0.87438">
        <ele>194.32</ele>
        <time>2012-12-23T08:41:02Z</time>
      </trkpt>
      <trkpt lat="44.61841" lon="0.87435">
        <ele>194.32</ele>
        <time>2012-12-23T08:41:05Z</time>
      </trkpt>
      <trkpt lat="44.6185" lon="0.8743">
        <ele>188.08</ele>
        <time>2012-12-23T08:41:22Z</time>
      </trkpt>
      <trkpt lat="44.6185" lon="0.87422">
        <ele>188.08</ele>
        <time>2012-12-23T08:41:48Z</time>
      </trkpt>
      <trkpt lat="44.61849" lon="0.87419">
        <ele>191.44</ele>
        <time>2012-12-23T08:42:06Z</time>
      </trkpt>
      <trkpt lat="44.6185" lon="0.87418">
        <ele>190.96</ele>
        <time>2012-12-23T08:42:07Z</time>
      </trkpt>
      <trkpt lat="44.61857" lon="0.87414">
        <ele>190.48</ele>
        <time>2012-12-23T08:42:11Z</time>
      </trkpt>
      <trkpt lat="44.61874" lon="0.874">
        <ele>189.52</ele>
        <time>2012-12-23T08:42:22Z</time>
      </trkpt>
      <trkpt lat="44.61906" lon="0.87379">
        <ele>186.63</ele>
        <time>2012-12-23T08:42:34Z</time>
      </trkpt>
      <trkpt lat="44.6194" lon="0.87384">
        <ele>188.08</ele>
        <time>2012-12-23T08:42:43Z</time>
      </trkpt>
      <trkpt lat="44.61982" lon="0.874">
        <ele>194.32</ele>
        <time>2012-12-23T08:42:53Z</time>
      </trkpt>
      <trkpt lat="44.62003" lon="0.87406">
        <ele>194.8</ele>
        <time>2012-12-23T08:42:56Z</time>
      </trkpt>
      <trkpt lat="44.62023" lon="0.87408">
        <ele>194.8</ele>
        <time>2012-12-23T08:42:59Z</time>
      </trkpt>
      <trkpt lat="44.62066" lon="0.87427">
        <ele>194.32</ele>
        <time>2012-12-23T08:43:07Z</time>
      </trkpt>
      <trkpt lat="44.62086" lon="0.87425">
        <ele>194.32</ele>
        <time>2012-12-23T08:43:10Z</time>
      </trkpt>
      <trkpt lat="44.62107" lon="0.87422">
        <ele>194.32</ele>
        <time>2012-12-23T08:43:13Z</time>
      </trkpt>
      <trkpt lat="44.62127" lon="0.87423">
        <ele>193.84</ele>
        <time>2012-12-23T08:43:17Z</time>
      </trkpt>
      <trkpt lat="44.62153" lon="0.87425">
        <ele>191.44</ele>
        <time>2012-12-23T08:43:21Z</time>
      </trkpt>
      <trkpt lat="44.62169" lon="0.87425">
        <ele>190</ele>
        <time>2012-12-23T08:43:23Z</time>
      </trkpt>
      <trkpt lat="44.622" lon="0.87431">
        <ele>188.56</ele>
        <time>2012-12-23T08:43:27Z</time>
      </trkpt>
      <trkpt lat="44.62247" lon="0.87443">
        <ele>190</ele>
        <time>2012-12-23T08:43:34Z</time>
      </trkpt>
      <trkpt lat="44.62269" lon="0.87452">
        <ele>190</ele>
        <time>2012-12-23T08:43:38Z</time>
      </trkpt>
      <trkpt lat="44.623" lon="0.87467">
        <ele>190.96</ele>
        <time>2012-12-23T08:43:45Z</time>
      </trkpt>
      <trkpt lat="44.62314" lon="0.87462">
        <ele>191.44</ele>
        <time>2012-12-23T08:43:49Z</time>
      </trkpt>
      <trkpt lat="44.62324" lon="0.87453">
        <ele>192.4</ele>
        <time>2012-12-23T08:43:52Z</time>
      </trkpt>
      <trkpt lat="44.62333" lon="0.8744">
        <ele>193.36</ele>
        <time>2012-12-23T08:43:55Z</time>
      </trkpt>
      <trkpt lat="44.62352" lon="0.87401">
        <ele>196.73</ele>
        <time>2012-12-23T08:44:03Z</time>
      </trkpt>
      <trkpt lat="44.62358" lon="0.87387">
        <ele>197.69</ele>
        <time>2012-12-23T08:44:05Z</time>
      </trkpt>
      <trkpt lat="44.62379" lon="0.87347">
        <ele>199.13</ele>
        <time>2012-12-23T08:44:11Z</time>
      </trkpt>
      <trkpt lat="44.62386" lon="0.87333">
        <ele>199.61</ele>
        <time>2012-12-23T08:44:13Z</time>
      </trkpt>
      <trkpt lat="44.62403" lon="0.87309">
        <ele>200.09</ele>
        <time>2012-12-23T08:44:18Z</time>
      </trkpt>
      <trkpt lat="44.62435" lon="0.87234">
        <ele>198.65</ele>
        <time>2012-12-23T08:44:29Z</time>
      </trkpt>
      <trkpt lat="44.62453" lon="0.87195">
        <ele>195.77</ele>
        <time>2012-12-23T08:44:35Z</time>
      </trkpt>
      <trkpt lat="44.62483" lon="0.8718">
        <ele>191.92</ele>
        <time>2012-12-23T08:44:42Z</time>
      </trkpt>
      <trkpt lat="44.62494" lon="0.87187">
        <ele>190.48</ele>
        <time>2012-12-23T08:44:44Z</time>
      </trkpt>
      <trkpt lat="44.62518" lon="0.87193">
        <ele>186.63</ele>
        <time>2012-12-23T08:44:53Z</time>
      </trkpt>
      <trkpt lat="44.6252" lon="0.87194">
        <ele>184.71</ele>
        <time>2012-12-23T08:45:10Z</time>
      </trkpt>
      <trkpt lat="44.62521" lon="0.87194">
        <ele>183.27</ele>
        <time>2012-12-23T08:45:26Z</time>
      </trkpt>
      <trkpt lat="44.62521" lon="0.87195">
        <ele>182.31</ele>
        <time>2012-12-23T08:45:51Z</time>
      </trkpt>
      <trkpt lat="44.62522" lon="0.87196">
        <ele>183.27</ele>
        <time>2012-12-23T08:46:11Z</time>
      </trkpt>
      <trkpt lat="44.62521" lon="0.87195">
        <ele>183.27</ele>
        <time>2012-12-23T08:46:31Z</time>
      </trkpt>
      <trkpt lat="44.62522" lon="0.87194">
        <ele>183.27</ele>
        <time>2012-12-23T08:46:58Z</time>
      </trkpt>
      <trkpt lat="44.62521" lon="0.87193">
        <ele>183.27</ele>
        <time>2012-12-23T08:47:28Z</time>
      </trkpt>
      <trkpt lat="44.62521" lon="0.87194">
        <ele>183.27</ele>
        <time>2012-12-23T08:47:29Z</time>
      </trkpt>
      <trkpt lat="44.6255" lon="0.87223">
        <ele>182.79</ele>
        <time>2012-12-23T08:47:42Z</time>
      </trkpt>
      <trkpt lat="44.62606" lon="0.87286">
        <ele>183.75</ele>
        <time>2012-12-23T08:47:59Z</time>
      </trkpt>
      <trkpt lat="44.62653" lon="0.87346">
        <ele>185.67</ele>
        <time>2012-12-23T08:48:14Z</time>
      </trkpt>
      <trkpt lat="44.62714" lon="0.87424">
        <ele>188.08</ele>
        <time>2012-12-23T08:48:33Z</time>
      </trkpt>
      <trkpt lat="44.62763" lon="0.87473">
        <ele>192.4</ele>
        <time>2012-12-23T08:48:47Z</time>
      </trkpt>
      <trkpt lat="44.62818" lon="0.87523">
        <ele>198.65</ele>
        <time>2012-12-23T08:49:03Z</time>
      </trkpt>
      <trkpt lat="44.62832" lon="0.87537">
        <ele>198.17</ele>
        <time>2012-12-23T08:49:09Z</time>
      </trkpt>
      <trkpt lat="44.62833" lon="0.87541">
        <ele>196.73</ele>
        <time>2012-12-23T08:49:22Z</time>
      </trkpt>
      <trkpt lat="44.62834" lon="0.87541">
        <ele>197.69</ele>
        <time>2012-12-23T08:49:45Z</time>
      </trkpt>
      <trkpt lat="44.62834" lon="0.8754">
        <ele>197.21</ele>
        <time>2012-12-23T08:50:12Z</time>
      </trkpt>
      <trkpt lat="44.62833" lon="0.8754">
        <ele>196.25</ele>
        <time>2012-12-23T08:50:34Z</time>
      </trkpt>
      <trkpt lat="44.62834" lon="0.8754">
        <ele>196.25</ele>
        <time>2012-12-23T08:50:44Z</time>
      </trkpt>
      <trkpt lat="44.62858" lon="0.8756">
        <ele>196.25</ele>
        <time>2012-12-23T08:50:55Z</time>
      </trkpt>
      <trkpt lat="44.62887" lon="0.87583">
        <ele>196.73</ele>
        <time>2012-12-23T08:51:07Z</time>
      </trkpt>
      <trkpt lat="44.62923" lon="0.87616">
        <ele>197.21</ele>
        <time>2012-12-23T08:51:23Z</time>
      </trkpt>
      <trkpt lat="44.62969" lon="0.87664">
        <ele>200.57</ele>
        <time>2012-12-23T08:51:39Z</time>
      </trkpt>
      <trkpt lat="44.63008" lon="0.8769">
        <ele>201.05</ele>
        <time>2012-12-23T08:51:50Z</time>
      </trkpt>
      <trkpt lat="44.63051" lon="0.87717">
        <ele>203.46</ele>
        <time>2012-12-23T08:52:02Z</time>
      </trkpt>
      <trkpt lat="44.63078" lon="0.87731">
        <ele>203.94</ele>
        <time>2012-12-23T08:52:12Z</time>
      </trkpt>
      <trkpt lat="44.63099" lon="0.87743">
        <ele>206.34</ele>
        <time>2012-12-23T08:52:23Z</time>
      </trkpt>
      <trkpt lat="44.63126" lon="0.87759">
        <ele>206.34</ele>
        <time>2012-12-23T08:52:34Z</time>
      </trkpt>
      <trkpt lat="44.63158" lon="0.87778">
        <ele>203.94</ele>
        <time>2012-12-23T08:52:43Z</time>
      </trkpt>
      <trkpt lat="44.63194" lon="0.87795">
        <ele>203.94</ele>
        <time>2012-12-23T08:52:52Z</time>
      </trkpt>
      <trkpt lat="44.6324" lon="0.87823">
        <ele>204.42</ele>
        <time>2012-12-23T08:53:05Z</time>
      </trkpt>
      <trkpt lat="44.63274" lon="0.87826">
        <ele>204.42</ele>
        <time>2012-12-23T08:53:17Z</time>
      </trkpt>
      <trkpt lat="44.63308" lon="0.87829">
        <ele>208.26</ele>
        <time>2012-12-23T08:53:27Z</time>
      </trkpt>
      <trkpt lat="44.63354" lon="0.87831">
        <ele>209.22</ele>
        <time>2012-12-23T08:53:38Z</time>
      </trkpt>
      <trkpt lat="44.6337" lon="0.87833">
        <ele>208.26</ele>
        <time>2012-12-23T08:53:41Z</time>
      </trkpt>
      <trkpt lat="44.63393" lon="0.87833">
        <ele>206.82</ele>
        <time>2012-12-23T08:53:45Z</time>
      </trkpt>
      <trkpt lat="44.63475" lon="0.87837">
        <ele>203.46</ele>
        <time>2012-12-23T08:53:59Z</time>
      </trkpt>
      <trkpt lat="44.6349" lon="0.87837">
        <ele>202.49</ele>
        <time>2012-12-23T08:54:03Z</time>
      </trkpt>
      <trkpt lat="44.63497" lon="0.87829">
        <ele>202.01</ele>
        <time>2012-12-23T08:54:08Z</time>
      </trkpt>
      <trkpt lat="44.63512" lon="0.87838">
        <ele>200.57</ele>
        <time>2012-12-23T08:54:21Z</time>
      </trkpt>
      <trkpt lat="44.63513" lon="0.87838">
        <ele>201.53</ele>
        <time>2012-12-23T08:54:40Z</time>
      </trkpt>
      <trkpt lat="44.63516" lon="0.87842">
        <ele>201.53</ele>
        <time>2012-12-23T08:54:54Z</time>
      </trkpt>
      <trkpt lat="44.63539" lon="0.87869">
        <ele>202.01</ele>
        <time>2012-12-23T08:55:05Z</time>
      </trkpt>
      <trkpt lat="44.63582" lon="0.87916">
        <ele>206.82</ele>
        <time>2012-12-23T08:55:20Z</time>
      </trkpt>
      <trkpt lat="44.6361" lon="0.87943">
        <ele>211.63</ele>
        <time>2012-12-23T08:55:31Z</time>
      </trkpt>
      <trkpt lat="44.63636" lon="0.87962">
        <ele>214.51</ele>
        <time>2012-12-23T08:55:44Z</time>
      </trkpt>
      <trkpt lat="44.63641" lon="0.87966">
        <ele>211.15</ele>
        <time>2012-12-23T08:55:56Z</time>
      </trkpt>
      <trkpt lat="44.63642" lon="0.87966">
        <ele>209.7</ele>
        <time>2012-12-23T08:56:24Z</time>
      </trkpt>
      <trkpt lat="44.63656" lon="0.87972">
        <ele>211.15</ele>
        <time>2012-12-23T08:56:30Z</time>
      </trkpt>
      <trkpt lat="44.63715" lon="0.88008">
        <ele>210.19</ele>
        <time>2012-12-23T08:56:41Z</time>
      </trkpt>
      <trkpt lat="44.6378" lon="0.88045">
        <ele>208.26</ele>
        <time>2012-12-23T08:56:52Z</time>
      </trkpt>
      <trkpt lat="44.63871" lon="0.88082">
        <ele>203.94</ele>
        <time>2012-12-23T08:57:04Z</time>
      </trkpt>
      <trkpt lat="44.6399" lon="0.88122">
        <ele>196.25</ele>
        <time>2012-12-23T08:57:19Z</time>
      </trkpt>
      <trkpt lat="44.64061" lon="0.88149">
        <ele>192.88</ele>
        <time>2012-12-23T08:57:29Z</time>
      </trkpt>
      <trkpt lat="44.6407" lon="0.88137">
        <ele>192.4</ele>
        <time>2012-12-23T08:57:34Z</time>
      </trkpt>
      <trkpt lat="44.64074" lon="0.88127">
        <ele>191.92</ele>
        <time>2012-12-23T08:57:36Z</time>
      </trkpt>
      <trkpt lat="44.64081" lon="0.881">
        <ele>191.92</ele>
        <time>2012-12-23T08:57:41Z</time>
      </trkpt>
      <trkpt lat="44.64112" lon="0.88078">
        <ele>193.36</ele>
        <time>2012-12-23T08:57:52Z</time>
      </trkpt>
      <trkpt lat="44.64132" lon="0.88058">
        <ele>192.88</ele>
        <time>2012-12-23T08:57:57Z</time>
      </trkpt>
      <trkpt lat="44.64148" lon="0.88057">
        <ele>190.96</ele>
        <time>2012-12-23T08:58:01Z</time>
      </trkpt>
      <trkpt lat="44.6417" lon="0.88052">
        <ele>188.08</ele>
        <time>2012-12-23T08:58:06Z</time>
      </trkpt>
      <trkpt lat="44.64177" lon="0.88037">
        <ele>187.11</ele>
        <time>2012-12-23T08:58:08Z</time>
      </trkpt>
      <trkpt lat="44.64212" lon="0.88001">
        <ele>184.71</ele>
        <time>2012-12-23T08:58:14Z</time>
      </trkpt>
      <trkpt lat="44.64253" lon="0.87975">
        <ele>183.27</ele>
        <time>2012-12-23T08:58:20Z</time>
      </trkpt>
      <trkpt lat="44.64287" lon="0.8796">
        <ele>181.35</ele>
        <time>2012-12-23T08:58:25Z</time>
      </trkpt>
      <trkpt lat="44.64321" lon="0.8795">
        <ele>177.98</ele>
        <time>2012-12-23T08:58:34Z</time>
      </trkpt>
      <trkpt lat="44.64343" lon="0.87947">
        <ele>177.5</ele>
        <time>2012-12-23T08:58:42Z</time>
      </trkpt>
      <trkpt lat="44.6437" lon="0.87941">
        <ele>178.94</ele>
        <time>2012-12-23T08:58:53Z</time>
      </trkpt>
      <trkpt lat="44.64401" lon="0.87934">
        <ele>178.46</ele>
        <time>2012-12-23T08:59:01Z</time>
      </trkpt>
      <trkpt lat="44.64429" lon="0.87934">
        <ele>176.06</ele>
        <time>2012-12-23T08:59:10Z</time>
      </trkpt>
      <trkpt lat="44.64445" lon="0.87936">
        <ele>179.9</ele>
        <time>2012-12-23T08:59:26Z</time>
      </trkpt>
      <trkpt lat="44.64456" lon="0.87939">
        <ele>187.11</ele>
        <time>2012-12-23T08:59:51Z</time>
      </trkpt>
      <trkpt lat="44.64465" lon="0.87926">
        <ele>186.63</ele>
        <time>2012-12-23T08:59:55Z</time>
      </trkpt>
      <trkpt lat="44.64481" lon="0.87876">
        <ele>187.11</ele>
        <time>2012-12-23T09:00:06Z</time>
      </trkpt>
      <trkpt lat="44.64485" lon="0.87863">
        <ele>188.56</ele>
        <time>2012-12-23T09:00:13Z</time>
      </trkpt>
      <trkpt lat="44.64486" lon="0.8785">
        <ele>189.52</ele>
        <time>2012-12-23T09:00:18Z</time>
      </trkpt>
      <trkpt lat="44.64492" lon="0.87804">
        <ele>190.96</ele>
        <time>2012-12-23T09:00:31Z</time>
      </trkpt>
      <trkpt lat="44.64494" lon="0.87785">
        <ele>191.92</ele>
        <time>2012-12-23T09:00:38Z</time>
      </trkpt>
      <trkpt lat="44.64498" lon="0.87772">
        <ele>192.4</ele>
        <time>2012-12-23T09:00:47Z</time>
      </trkpt>
      <trkpt lat="44.64501" lon="0.87765">
        <ele>190.48</ele>
        <time>2012-12-23T09:01:02Z</time>
      </trkpt>
      <trkpt lat="44.64504" lon="0.87762">
        <ele>190.48</ele>
        <time>2012-12-23T09:01:17Z</time>
      </trkpt>
      <trkpt lat="44.64508" lon="0.87762">
        <ele>191.44</ele>
        <time>2012-12-23T09:01:21Z</time>
      </trkpt>
      <trkpt lat="44.64512" lon="0.87759">
        <ele>191.44</ele>
        <time>2012-12-23T09:01:24Z</time>
      </trkpt>
      <trkpt lat="44.64514" lon="0.87734">
        <ele>190.48</ele>
        <time>2012-12-23T09:01:33Z</time>
      </trkpt>
      <trkpt lat="44.64527" lon="0.87695">
        <ele>188.08</ele>
        <time>2012-12-23T09:01:43Z</time>
      </trkpt>
      <trkpt lat="44.64543" lon="0.87661">
        <ele>185.19</ele>
        <time>2012-12-23T09:01:51Z</time>
      </trkpt>
      <trkpt lat="44.64551" lon="0.8761">
        <ele>178.94</ele>
        <time>2012-12-23T09:02:01Z</time>
      </trkpt>
      <trkpt lat="44.64552" lon="0.87606">
        <ele>178.46</ele>
        <time>2012-12-23T09:02:02Z</time>
      </trkpt>
      <trkpt lat="44.64571" lon="0.87565">
        <ele>171.25</ele>
        <time>2012-12-23T09:02:13Z</time>
      </trkpt>
      <trkpt lat="44.64578" lon="0.87555">
        <ele>169.81</ele>
        <time>2012-12-23T09:02:16Z</time>
      </trkpt>
      <trkpt lat="44.64585" lon="0.87548">
        <ele>168.85</ele>
        <time>2012-12-23T09:02:18Z</time>
      </trkpt>
      <trkpt lat="44.64594" lon="0.87542">
        <ele>167.89</ele>
        <time>2012-12-23T09:02:20Z</time>
      </trkpt>
      <trkpt lat="44.64612" lon="0.87533">
        <ele>165.96</ele>
        <time>2012-12-23T09:02:24Z</time>
      </trkpt>
      <trkpt lat="44.64626" lon="0.87521">
        <ele>161.64</ele>
        <time>2012-12-23T09:02:33Z</time>
      </trkpt>
      <trkpt lat="44.64628" lon="0.87518">
        <ele>161.16</ele>
        <time>2012-12-23T09:02:40Z</time>
      </trkpt>
      <trkpt lat="44.64628" lon="0.87514">
        <ele>162.12</ele>
        <time>2012-12-23T09:02:54Z</time>
      </trkpt>
      <trkpt lat="44.64628" lon="0.87511">
        <ele>161.16</ele>
        <time>2012-12-23T09:03:06Z</time>
      </trkpt>
      <trkpt lat="44.64634" lon="0.87504">
        <ele>161.16</ele>
        <time>2012-12-23T09:03:14Z</time>
      </trkpt>
      <trkpt lat="44.6463" lon="0.87511">
        <ele>162.6</ele>
        <time>2012-12-23T09:03:23Z</time>
      </trkpt>
      <trkpt lat="44.64631" lon="0.87511">
        <ele>162.6</ele>
        <time>2012-12-23T09:03:24Z</time>
      </trkpt>
      <trkpt lat="44.64632" lon="0.87506">
        <ele>162.6</ele>
        <time>2012-12-23T09:03:29Z</time>
      </trkpt>
      <trkpt lat="44.64629" lon="0.87478">
        <ele>163.56</ele>
        <time>2012-12-23T09:03:39Z</time>
      </trkpt>
      <trkpt lat="44.64626" lon="0.87475">
        <ele>166.93</ele>
        <time>2012-12-23T09:03:49Z</time>
      </trkpt>
      <trkpt lat="44.64626" lon="0.87469">
        <ele>175.58</ele>
        <time>2012-12-23T09:04:04Z</time>
      </trkpt>
      <trkpt lat="44.64624" lon="0.87461">
        <ele>178.94</ele>
        <time>2012-12-23T09:04:23Z</time>
      </trkpt>
      <trkpt lat="44.64624" lon="0.87456">
        <ele>181.35</ele>
        <time>2012-12-23T09:04:34Z</time>
      </trkpt>
      <trkpt lat="44.64622" lon="0.87453">
        <ele>185.67</ele>
        <time>2012-12-23T09:04:45Z</time>
      </trkpt>
      <trkpt lat="44.64623" lon="0.87451">
        <ele>185.67</ele>
        <time>2012-12-23T09:04:59Z</time>
      </trkpt>
      <trkpt lat="44.64624" lon="0.87451">
        <ele>185.19</ele>
        <time>2012-12-23T09:05:03Z</time>
      </trkpt>
      <trkpt lat="44.64637" lon="0.87446">
        <ele>183.75</ele>
        <time>2012-12-23T09:05:09Z</time>
      </trkpt>
      <trkpt lat="44.64664" lon="0.87425">
        <ele>177.5</ele>
        <time>2012-12-23T09:05:17Z</time>
      </trkpt>
      <trkpt lat="44.64695" lon="0.87399">
        <ele>167.41</ele>
        <time>2012-12-23T09:05:27Z</time>
      </trkpt>
      <trkpt lat="44.64728" lon="0.87378">
        <ele>163.56</ele>
        <time>2012-12-23T09:05:36Z</time>
      </trkpt>
      <trkpt lat="44.64761" lon="0.87373">
        <ele>163.08</ele>
        <time>2012-12-23T09:05:46Z</time>
      </trkpt>
      <trkpt lat="44.64786" lon="0.87378">
        <ele>160.2</ele>
        <time>2012-12-23T09:05:55Z</time>
      </trkpt>
      <trkpt lat="44.64805" lon="0.87386">
        <ele>158.27</ele>
        <time>2012-12-23T09:06:04Z</time>
      </trkpt>
      <trkpt lat="44.64819" lon="0.87388">
        <ele>161.64</ele>
        <time>2012-12-23T09:06:16Z</time>
      </trkpt>
      <trkpt lat="44.64828" lon="0.87391">
        <ele>162.12</ele>
        <time>2012-12-23T09:06:28Z</time>
      </trkpt>
      <trkpt lat="44.64847" lon="0.87394">
        <ele>160.2</ele>
        <time>2012-12-23T09:06:37Z</time>
      </trkpt>
      <trkpt lat="44.64868" lon="0.874">
        <ele>156.83</ele>
        <time>2012-12-23T09:06:42Z</time>
      </trkpt>
      <trkpt lat="44.64909" lon="0.87398">
        <ele>152.03</ele>
        <time>2012-12-23T09:06:52Z</time>
      </trkpt>
      <trkpt lat="44.6494" lon="0.87387">
        <ele>147.22</ele>
        <time>2012-12-23T09:07:01Z</time>
      </trkpt>
      <trkpt lat="44.64949" lon="0.87387">
        <ele>144.34</ele>
        <time>2012-12-23T09:07:12Z</time>
      </trkpt>
      <trkpt lat="44.64953" lon="0.87383">
        <ele>149.14</ele>
        <time>2012-12-23T09:07:34Z</time>
      </trkpt>
      <trkpt lat="44.64963" lon="0.87388">
        <ele>156.35</ele>
        <time>2012-12-23T09:07:58Z</time>
      </trkpt>
      <trkpt lat="44.64971" lon="0.87397">
        <ele>155.87</ele>
        <time>2012-12-23T09:08:02Z</time>
      </trkpt>
      <trkpt lat="44.64981" lon="0.87396">
        <ele>156.83</ele>
        <time>2012-12-23T09:08:06Z</time>
      </trkpt>
      <trkpt lat="44.65011" lon="0.87348">
        <ele>154.43</ele>
        <time>2012-12-23T09:08:18Z</time>
      </trkpt>
      <trkpt lat="44.65032" lon="0.87311">
        <ele>152.03</ele>
        <time>2012-12-23T09:08:26Z</time>
      </trkpt>
      <trkpt lat="44.65038" lon="0.87285">
        <ele>150.58</ele>
        <time>2012-12-23T09:08:30Z</time>
      </trkpt>
      <trkpt lat="44.65041" lon="0.87271">
        <ele>150.1</ele>
        <time>2012-12-23T09:08:32Z</time>
      </trkpt>
      <trkpt lat="44.65046" lon="0.87252">
        <ele>149.62</ele>
        <time>2012-12-23T09:08:35Z</time>
      </trkpt>
      <trkpt lat="44.65052" lon="0.87225">
        <ele>148.18</ele>
        <time>2012-12-23T09:08:39Z</time>
      </trkpt>
      <trkpt lat="44.65061" lon="0.87209">
        <ele>147.22</ele>
        <time>2012-12-23T09:08:42Z</time>
      </trkpt>
      <trkpt lat="44.65081" lon="0.87173">
        <ele>145.3</ele>
        <time>2012-12-23T09:08:48Z</time>
      </trkpt>
      <trkpt lat="44.65113" lon="0.87134">
        <ele>143.37</ele>
        <time>2012-12-23T09:08:55Z</time>
      </trkpt>
      <trkpt lat="44.65144" lon="0.87104">
        <ele>140.97</ele>
        <time>2012-12-23T09:09:01Z</time>
      </trkpt>
      <trkpt lat="44.65164" lon="0.87086">
        <ele>140.01</ele>
        <time>2012-12-23T09:09:05Z</time>
      </trkpt>
      <trkpt lat="44.65196" lon="0.87061">
        <ele>137.61</ele>
        <time>2012-12-23T09:09:11Z</time>
      </trkpt>
      <trkpt lat="44.65254" lon="0.87011">
        <ele>134.24</ele>
        <time>2012-12-23T09:09:22Z</time>
      </trkpt>
      <trkpt lat="44.65265" lon="0.87001">
        <ele>133.76</ele>
        <time>2012-12-23T09:09:24Z</time>
      </trkpt>
      <trkpt lat="44.65291" lon="0.86984">
        <ele>132.8</ele>
        <time>2012-12-23T09:09:29Z</time>
      </trkpt>
      <trkpt lat="44.65308" lon="0.86968">
        <ele>132.8</ele>
        <time>2012-12-23T09:09:33Z</time>
      </trkpt>
      <trkpt lat="44.65336" lon="0.8693">
        <ele>131.36</ele>
        <time>2012-12-23T09:09:39Z</time>
      </trkpt>
      <trkpt lat="44.65349" lon="0.86889">
        <ele>129.43</ele>
        <time>2012-12-23T09:09:44Z</time>
      </trkpt>
      <trkpt lat="44.65354" lon="0.86852">
        <ele>127.03</ele>
        <time>2012-12-23T09:09:48Z</time>
      </trkpt>
      <trkpt lat="44.65366" lon="0.86741">
        <ele>122.22</ele>
        <time>2012-12-23T09:10:00Z</time>
      </trkpt>
      <trkpt lat="44.65387" lon="0.86699">
        <ele>124.15</ele>
        <time>2012-12-23T09:10:10Z</time>
      </trkpt>
      <trkpt lat="44.65412" lon="0.86687">
        <ele>131.36</ele>
        <time>2012-12-23T09:10:20Z</time>
      </trkpt>
      <trkpt lat="44.65421" lon="0.86685">
        <ele>133.76</ele>
        <time>2012-12-23T09:10:24Z</time>
      </trkpt>
      <trkpt lat="44.65448" lon="0.86667">
        <ele>142.89</ele>
        <time>2012-12-23T09:10:36Z</time>
      </trkpt>
      <trkpt lat="44.65471" lon="0.86649">
        <ele>146.74</ele>
        <time>2012-12-23T09:10:47Z</time>
      </trkpt>
      <trkpt lat="44.65483" lon="0.86636">
        <ele>149.14</ele>
        <time>2012-12-23T09:10:54Z</time>
      </trkpt>
      <trkpt lat="44.65486" lon="0.86635">
        <ele>151.06</ele>
        <time>2012-12-23T09:10:57Z</time>
      </trkpt>
      <trkpt lat="44.65485" lon="0.86647">
        <ele>152.03</ele>
        <time>2012-12-23T09:11:03Z</time>
      </trkpt>
      <trkpt lat="44.65484" lon="0.86651">
        <ele>152.51</ele>
        <time>2012-12-23T09:11:05Z</time>
      </trkpt>
      <trkpt lat="44.65474" lon="0.86685">
        <ele>153.95</ele>
        <time>2012-12-23T09:11:17Z</time>
      </trkpt>
      <trkpt lat="44.65469" lon="0.86696">
        <ele>154.91</ele>
        <time>2012-12-23T09:11:21Z</time>
      </trkpt>
      <trkpt lat="44.65451" lon="0.86735">
        <ele>158.75</ele>
        <time>2012-12-23T09:11:34Z</time>
      </trkpt>
      <trkpt lat="44.65442" lon="0.86773">
        <ele>162.12</ele>
        <time>2012-12-23T09:11:47Z</time>
      </trkpt>
      <trkpt lat="44.65442" lon="0.86776">
        <ele>162.6</ele>
        <time>2012-12-23T09:11:48Z</time>
      </trkpt>
      <trkpt lat="44.65438" lon="0.86789">
        <ele>164.52</ele>
        <time>2012-12-23T09:11:55Z</time>
      </trkpt>
      <trkpt lat="44.65433" lon="0.86833">
        <ele>170.29</ele>
        <time>2012-12-23T09:12:12Z</time>
      </trkpt>
      <trkpt lat="44.65439" lon="0.8687">
        <ele>171.25</ele>
        <time>2012-12-23T09:12:25Z</time>
      </trkpt>
      <trkpt lat="44.65448" lon="0.86899">
        <ele>174.14</ele>
        <time>2012-12-23T09:12:39Z</time>
      </trkpt>
      <trkpt lat="44.6545" lon="0.86919">
        <ele>177.5</ele>
        <time>2012-12-23T09:12:49Z</time>
      </trkpt>
      <trkpt lat="44.65452" lon="0.86944">
        <ele>181.35</ele>
        <time>2012-12-23T09:13:00Z</time>
      </trkpt>
      <trkpt lat="44.65452" lon="0.8697">
        <ele>182.31</ele>
        <time>2012-12-23T09:13:15Z</time>
      </trkpt>
      <trkpt lat="44.65452" lon="0.86973">
        <ele>182.31</ele>
        <time>2012-12-23T09:13:17Z</time>
      </trkpt>
      <trkpt lat="44.65454" lon="0.8698">
        <ele>181.35</ele>
        <time>2012-12-23T09:13:21Z</time>
      </trkpt>
      <trkpt lat="44.65456" lon="0.86983">
        <ele>180.87</ele>
        <time>2012-12-23T09:13:23Z</time>
      </trkpt>
      <trkpt lat="44.6546" lon="0.86994">
        <ele>179.42</ele>
        <time>2012-12-23T09:13:27Z</time>
      </trkpt>
      <trkpt lat="44.65478" lon="0.87027">
        <ele>177.5</ele>
        <time>2012-12-23T09:13:38Z</time>
      </trkpt>
      <trkpt lat="44.65483" lon="0.8703">
        <ele>175.1</ele>
        <time>2012-12-23T09:13:53Z</time>
      </trkpt>
      <trkpt lat="44.65485" lon="0.87029">
        <ele>178.46</ele>
        <time>2012-12-23T09:14:25Z</time>
      </trkpt>
      <trkpt lat="44.65483" lon="0.87028">
        <ele>179.42</ele>
        <time>2012-12-23T09:14:45Z</time>
      </trkpt>
      <trkpt lat="44.65478" lon="0.87025">
        <ele>177.98</ele>
        <time>2012-12-23T09:15:09Z</time>
      </trkpt>
      <trkpt lat="44.6548" lon="0.87022">
        <ele>178.94</ele>
        <time>2012-12-23T09:15:20Z</time>
      </trkpt>
      <trkpt lat="44.65503" lon="0.87025">
        <ele>182.79</ele>
        <time>2012-12-23T09:15:33Z</time>
      </trkpt>
      <trkpt lat="44.65538" lon="0.87022">
        <ele>186.15</ele>
        <time>2012-12-23T09:15:48Z</time>
      </trkpt>
      <trkpt lat="44.65566" lon="0.87032">
        <ele>189.04</ele>
        <time>2012-12-23T09:15:59Z</time>
      </trkpt>
      <trkpt lat="44.65593" lon="0.87069">
        <ele>190.48</ele>
        <time>2012-12-23T09:16:11Z</time>
      </trkpt>
      <trkpt lat="44.656" lon="0.87114">
        <ele>186.63</ele>
        <time>2012-12-23T09:16:21Z</time>
      </trkpt>
      <trkpt lat="44.65603" lon="0.87136">
        <ele>185.19</ele>
        <time>2012-12-23T09:16:26Z</time>
      </trkpt>
      <trkpt lat="44.65588" lon="0.87157">
        <ele>184.71</ele>
        <time>2012-12-23T09:16:35Z</time>
      </trkpt>
      <trkpt lat="44.65561" lon="0.872">
        <ele>187.11</ele>
        <time>2012-12-23T09:16:52Z</time>
      </trkpt>
      <trkpt lat="44.65531" lon="0.87243">
        <ele>189.04</ele>
        <time>2012-12-23T09:17:07Z</time>
      </trkpt>
      <trkpt lat="44.6551" lon="0.87296">
        <ele>192.4</ele>
        <time>2012-12-23T09:17:22Z</time>
      </trkpt>
      <trkpt lat="44.65495" lon="0.87339">
        <ele>193.36</ele>
        <time>2012-12-23T09:17:33Z</time>
      </trkpt>
      <trkpt lat="44.6548" lon="0.87381">
        <ele>194.32</ele>
        <time>2012-12-23T09:17:43Z</time>
      </trkpt>
      <trkpt lat="44.65464" lon="0.87442">
        <ele>196.25</ele>
        <time>2012-12-23T09:17:55Z</time>
      </trkpt>
      <trkpt lat="44.65458" lon="0.87459">
        <ele>196.73</ele>
        <time>2012-12-23T09:17:58Z</time>
      </trkpt>
      <trkpt lat="44.6545" lon="0.8748">
        <ele>198.65</ele>
        <time>2012-12-23T09:18:02Z</time>
      </trkpt>
      <trkpt lat="44.65439" lon="0.87498">
        <ele>199.61</ele>
        <time>2012-12-23T09:18:06Z</time>
      </trkpt>
      <trkpt lat="44.65428" lon="0.87516">
        <ele>199.61</ele>
        <time>2012-12-23T09:18:10Z</time>
      </trkpt>
      <trkpt lat="44.65413" lon="0.87547">
        <ele>199.61</ele>
        <time>2012-12-23T09:18:16Z</time>
      </trkpt>
      <trkpt lat="44.65396" lon="0.87587">
        <ele>198.65</ele>
        <time>2012-12-23T09:18:23Z</time>
      </trkpt>
      <trkpt lat="44.65362" lon="0.87691">
        <ele>197.69</ele>
        <time>2012-12-23T09:18:39Z</time>
      </trkpt>
      <trkpt lat="44.65353" lon="0.87718">
        <ele>198.17</ele>
        <time>2012-12-23T09:18:43Z</time>
      </trkpt>
      <trkpt lat="44.6532" lon="0.87837">
        <ele>196.25</ele>
        <time>2012-12-23T09:18:59Z</time>
      </trkpt>
      <trkpt lat="44.65299" lon="0.8797">
        <ele>196.25</ele>
        <time>2012-12-23T09:19:14Z</time>
      </trkpt>
      <trkpt lat="44.65297" lon="0.88005">
        <ele>196.73</ele>
        <time>2012-12-23T09:19:18Z</time>
      </trkpt>
      <trkpt lat="44.65277" lon="0.88134">
        <ele>197.21</ele>
        <time>2012-12-23T09:19:34Z</time>
      </trkpt>
      <trkpt lat="44.65264" lon="0.882">
        <ele>198.17</ele>
        <time>2012-12-23T09:19:42Z</time>
      </trkpt>
      <trkpt lat="44.65263" lon="0.88234">
        <ele>198.17</ele>
        <time>2012-12-23T09:19:46Z</time>
      </trkpt>
      <trkpt lat="44.65254" lon="0.88359">
        <ele>199.61</ele>
        <time>2012-12-23T09:20:02Z</time>
      </trkpt>
      <trkpt lat="44.65253" lon="0.88388">
        <ele>199.61</ele>
        <time>2012-12-23T09:20:06Z</time>
      </trkpt>
      <trkpt lat="44.65252" lon="0.88416">
        <ele>199.61</ele>
        <time>2012-12-23T09:20:10Z</time>
      </trkpt>
      <trkpt lat="44.65248" lon="0.88491">
        <ele>199.61</ele>
        <time>2012-12-23T09:20:24Z</time>
      </trkpt>
      <trkpt lat="44.65247" lon="0.8852">
        <ele>199.61</ele>
        <time>2012-12-23T09:20:31Z</time>
      </trkpt>
      <trkpt lat="44.65249" lon="0.88525">
        <ele>199.13</ele>
        <time>2012-12-23T09:20:42Z</time>
      </trkpt>
      <trkpt lat="44.65249" lon="0.88525">
        <ele>198.17</ele>
        <time>2012-12-23T09:21:04Z</time>
      </trkpt>
      <trkpt lat="44.6525" lon="0.88524">
        <ele>198.65</ele>
        <time>2012-12-23T09:21:25Z</time>
      </trkpt>
      <trkpt lat="44.65249" lon="0.88519">
        <ele>199.13</ele>
        <time>2012-12-23T09:21:29Z</time>
      </trkpt>
      <trkpt lat="44.65248" lon="0.88518">
        <ele>198.65</ele>
        <time>2012-12-23T09:21:31Z</time>
      </trkpt>
      <trkpt lat="44.65239" lon="0.88515">
        <ele>198.17</ele>
        <time>2012-12-23T09:21:43Z</time>
      </trkpt>
      <trkpt lat="44.65241" lon="0.88513">
        <ele>200.09</ele>
        <time>2012-12-23T09:22:11Z</time>
      </trkpt>
      <trkpt lat="44.65241" lon="0.88514">
        <ele>202.01</ele>
        <time>2012-12-23T09:22:51Z</time>
      </trkpt>
      <trkpt lat="44.6524" lon="0.88514">
        <ele>202.01</ele>
        <time>2012-12-23T09:23:32Z</time>
      </trkpt>
      <trkpt lat="44.6524" lon="0.88515">
        <ele>202.49</ele>
        <time>2012-12-23T09:24:08Z</time>
      </trkpt>
      <trkpt lat="44.6524" lon="0.88514">
        <ele>202.49</ele>
        <time>2012-12-23T09:24:45Z</time>
      </trkpt>
      <trkpt lat="44.65241" lon="0.88513">
        <ele>202.98</ele>
        <time>2012-12-23T09:25:23Z</time>
      </trkpt>
      <trkpt lat="44.65241" lon="0.88514">
        <ele>202.01</ele>
        <time>2012-12-23T09:25:59Z</time>
      </trkpt>
      <trkpt lat="44.65241" lon="0.88513">
        <ele>202.49</ele>
        <time>2012-12-23T09:26:38Z</time>
      </trkpt>
      <trkpt lat="44.65243" lon="0.88514">
        <ele>202.49</ele>
        <time>2012-12-23T09:27:21Z</time>
      </trkpt>
      <trkpt lat="44.65242" lon="0.88515">
        <ele>202.98</ele>
        <time>2012-12-23T09:27:46Z</time>
      </trkpt>
      <trkpt lat="44.6524" lon="0.88515">
        <ele>202.01</ele>
        <time>2012-12-23T09:27:58Z</time>
      </trkpt>
      <trkpt lat="44.6524" lon="0.88515">
        <ele>202.01</ele>
        <time>2012-12-23T09:28:20Z</time>
      </trkpt>
      <trkpt lat="44.6524" lon="0.88515">
        <ele>202.49</ele>
        <time>2012-12-23T09:28:35Z</time>
      </trkpt>
      <trkpt lat="44.6525" lon="0.88528">
        <ele>201.05</ele>
        <time>2012-12-23T09:28:41Z</time>
      </trkpt>
      <trkpt lat="44.65238" lon="0.88566">
        <ele>199.61</ele>
        <time>2012-12-23T09:28:54Z</time>
      </trkpt>
      <trkpt lat="44.65229" lon="0.88591">
        <ele>199.13</ele>
        <time>2012-12-23T09:29:00Z</time>
      </trkpt>
      <trkpt lat="44.65214" lon="0.88608">
        <ele>198.17</ele>
        <time>2012-12-23T09:29:04Z</time>
      </trkpt>
      <trkpt lat="44.65158" lon="0.88609">
        <ele>194.32</ele>
        <time>2012-12-23T09:29:12Z</time>
      </trkpt>
      <trkpt lat="44.65031" lon="0.88563">
        <ele>180.87</ele>
        <time>2012-12-23T09:29:24Z</time>
      </trkpt>
      <trkpt lat="44.64897" lon="0.88544">
        <ele>172.69</ele>
        <time>2012-12-23T09:29:36Z</time>
      </trkpt>
      <trkpt lat="44.64825" lon="0.88561">
        <ele>176.06</ele>
        <time>2012-12-23T09:29:46Z</time>
      </trkpt>
      <trkpt lat="44.64822" lon="0.88561">
        <ele>176.54</ele>
        <time>2012-12-23T09:29:47Z</time>
      </trkpt>
      <trkpt lat="44.64806" lon="0.88573">
        <ele>178.46</ele>
        <time>2012-12-23T09:29:54Z</time>
      </trkpt>
      <trkpt lat="44.64799" lon="0.8859">
        <ele>179.42</ele>
        <time>2012-12-23T09:29:58Z</time>
      </trkpt>
      <trkpt lat="44.64796" lon="0.88629">
        <ele>177.5</ele>
        <time>2012-12-23T09:30:08Z</time>
      </trkpt>
      <trkpt lat="44.64796" lon="0.8863">
        <ele>177.98</ele>
        <time>2012-12-23T09:30:09Z</time>
      </trkpt>
      <trkpt lat="44.64793" lon="0.88651">
        <ele>180.87</ele>
        <time>2012-12-23T09:30:20Z</time>
      </trkpt>
      <trkpt lat="44.64781" lon="0.88685">
        <ele>185.19</ele>
        <time>2012-12-23T09:30:35Z</time>
      </trkpt>
      <trkpt lat="44.64765" lon="0.88716">
        <ele>190.96</ele>
        <time>2012-12-23T09:30:50Z</time>
      </trkpt>
      <trkpt lat="44.64741" lon="0.88739">
        <ele>198.17</ele>
        <time>2012-12-23T09:31:05Z</time>
      </trkpt>
      <trkpt lat="44.64713" lon="0.88736">
        <ele>200.57</ele>
        <time>2012-12-23T09:31:18Z</time>
      </trkpt>
      <trkpt lat="44.6469" lon="0.88737">
        <ele>202.01</ele>
        <time>2012-12-23T09:31:29Z</time>
      </trkpt>
      <trkpt lat="44.64674" lon="0.88766">
        <ele>203.94</ele>
        <time>2012-12-23T09:31:41Z</time>
      </trkpt>
      <trkpt lat="44.64659" lon="0.888">
        <ele>204.9</ele>
        <time>2012-12-23T09:31:51Z</time>
      </trkpt>
      <trkpt lat="44.64644" lon="0.8884">
        <ele>206.34</ele>
        <time>2012-12-23T09:32:03Z</time>
      </trkpt>
      <trkpt lat="44.64637" lon="0.88878">
        <ele>207.3</ele>
        <time>2012-12-23T09:32:14Z</time>
      </trkpt>
      <trkpt lat="44.64632" lon="0.8892">
        <ele>206.34</ele>
        <time>2012-12-23T09:32:24Z</time>
      </trkpt>
      <trkpt lat="44.6462" lon="0.88926">
        <ele>207.3</ele>
        <time>2012-12-23T09:32:30Z</time>
      </trkpt>
      <trkpt lat="44.64606" lon="0.88928">
        <ele>208.26</ele>
        <time>2012-12-23T09:32:39Z</time>
      </trkpt>
      <trkpt lat="44.64602" lon="0.88923">
        <ele>208.74</ele>
        <time>2012-12-23T09:32:52Z</time>
      </trkpt>
      <trkpt lat="44.64601" lon="0.88922">
        <ele>209.7</ele>
        <time>2012-12-23T09:33:13Z</time>
      </trkpt>
      <trkpt lat="44.646" lon="0.88923">
        <ele>211.15</ele>
        <time>2012-12-23T09:33:26Z</time>
      </trkpt>
      <trkpt lat="44.64592" lon="0.88907">
        <ele>210.19</ele>
        <time>2012-12-23T09:33:35Z</time>
      </trkpt>
      <trkpt lat="44.64559" lon="0.88885">
        <ele>210.19</ele>
        <time>2012-12-23T09:33:47Z</time>
      </trkpt>
      <trkpt lat="44.64538" lon="0.88894">
        <ele>210.19</ele>
        <time>2012-12-23T09:33:52Z</time>
      </trkpt>
      <trkpt lat="44.64488" lon="0.88982">
        <ele>210.19</ele>
        <time>2012-12-23T09:34:08Z</time>
      </trkpt>
      <trkpt lat="44.64451" lon="0.89037">
        <ele>208.74</ele>
        <time>2012-12-23T09:34:19Z</time>
      </trkpt>
      <trkpt lat="44.64366" lon="0.89121">
        <ele>209.22</ele>
        <time>2012-12-23T09:34:38Z</time>
      </trkpt>
      <trkpt lat="44.64304" lon="0.89181">
        <ele>211.63</ele>
        <time>2012-12-23T09:34:54Z</time>
      </trkpt>
      <trkpt lat="44.64243" lon="0.89241">
        <ele>214.03</ele>
        <time>2012-12-23T09:35:10Z</time>
      </trkpt>
      <trkpt lat="44.6419" lon="0.89292">
        <ele>217.88</ele>
        <time>2012-12-23T09:35:26Z</time>
      </trkpt>
      <trkpt lat="44.64145" lon="0.89336">
        <ele>220.76</ele>
        <time>2012-12-23T09:35:40Z</time>
      </trkpt>
      <trkpt lat="44.64115" lon="0.89365">
        <ele>226.05</ele>
        <time>2012-12-23T09:35:54Z</time>
      </trkpt>
      <trkpt lat="44.64088" lon="0.89392">
        <ele>228.45</ele>
        <time>2012-12-23T09:36:05Z</time>
      </trkpt>
      <trkpt lat="44.64053" lon="0.89426">
        <ele>231.33</ele>
        <time>2012-12-23T09:36:21Z</time>
      </trkpt>
      <trkpt lat="44.64045" lon="0.89428">
        <ele>230.37</ele>
        <time>2012-12-23T09:36:33Z</time>
      </trkpt>
      <trkpt lat="44.64046" lon="0.89428">
        <ele>227.97</ele>
        <time>2012-12-23T09:36:51Z</time>
      </trkpt>
      <trkpt lat="44.64046" lon="0.89426">
        <ele>227.49</ele>
        <time>2012-12-23T09:37:12Z</time>
      </trkpt>
      <trkpt lat="44.64045" lon="0.89426">
        <ele>228.93</ele>
        <time>2012-12-23T09:37:27Z</time>
      </trkpt>
      <trkpt lat="44.64045" lon="0.89398">
        <ele>227.97</ele>
        <time>2012-12-23T09:37:38Z</time>
      </trkpt>
      <trkpt lat="44.64049" lon="0.89337">
        <ele>221.72</ele>
        <time>2012-12-23T09:37:51Z</time>
      </trkpt>
      <trkpt lat="44.64056" lon="0.89259">
        <ele>214.99</ele>
        <time>2012-12-23T09:38:06Z</time>
      </trkpt>
      <trkpt lat="44.64054" lon="0.89247">
        <ele>214.51</ele>
        <time>2012-12-23T09:38:08Z</time>
      </trkpt>
      <trkpt lat="44.64019" lon="0.8918">
        <ele>215.47</ele>
        <time>2012-12-23T09:38:20Z</time>
      </trkpt>
      <trkpt lat="44.63995" lon="0.89151">
        <ele>215.95</ele>
        <time>2012-12-23T09:38:25Z</time>
      </trkpt>
      <trkpt lat="44.63985" lon="0.89141">
        <ele>215.95</ele>
        <time>2012-12-23T09:38:27Z</time>
      </trkpt>
      <trkpt lat="44.63901" lon="0.89039">
        <ele>217.4</ele>
        <time>2012-12-23T09:38:42Z</time>
      </trkpt>
      <trkpt lat="44.63825" lon="0.88945">
        <ele>220.76</ele>
        <time>2012-12-23T09:38:56Z</time>
      </trkpt>
      <trkpt lat="44.63785" lon="0.88861">
        <ele>222.2</ele>
        <time>2012-12-23T09:39:07Z</time>
      </trkpt>
      <trkpt lat="44.63777" lon="0.88832">
        <ele>222.68</ele>
        <time>2012-12-23T09:39:11Z</time>
      </trkpt>
      <trkpt lat="44.63735" lon="0.88738">
        <ele>224.12</ele>
        <time>2012-12-23T09:39:24Z</time>
      </trkpt>
      <trkpt lat="44.63708" lon="0.88698">
        <ele>223.64</ele>
        <time>2012-12-23T09:39:30Z</time>
      </trkpt>
      <trkpt lat="44.63649" lon="0.88659">
        <ele>223.16</ele>
        <time>2012-12-23T09:39:39Z</time>
      </trkpt>
      <trkpt lat="44.63625" lon="0.88619">
        <ele>221.72</ele>
        <time>2012-12-23T09:39:44Z</time>
      </trkpt>
      <trkpt lat="44.63571" lon="0.88481">
        <ele>215.47</ele>
        <time>2012-12-23T09:39:59Z</time>
      </trkpt>
      <trkpt lat="44.63564" lon="0.88492">
        <ele>214.03</ele>
        <time>2012-12-23T09:40:04Z</time>
      </trkpt>
      <trkpt lat="44.63574" lon="0.88561">
        <ele>214.03</ele>
        <time>2012-12-23T09:40:14Z</time>
      </trkpt>
      <trkpt lat="44.6357" lon="0.88676">
        <ele>213.07</ele>
        <time>2012-12-23T09:40:28Z</time>
      </trkpt>
      <trkpt lat="44.63558" lon="0.88765">
        <ele>212.11</ele>
        <time>2012-12-23T09:40:38Z</time>
      </trkpt>
      <trkpt lat="44.63564" lon="0.88811">
        <ele>211.63</ele>
        <time>2012-12-23T09:40:45Z</time>
      </trkpt>
      <trkpt lat="44.63569" lon="0.88825">
        <ele>211.63</ele>
        <time>2012-12-23T09:40:48Z</time>
      </trkpt>
      <trkpt lat="44.63592" lon="0.88886">
        <ele>211.15</ele>
        <time>2012-12-23T09:41:02Z</time>
      </trkpt>
      <trkpt lat="44.63623" lon="0.88961">
        <ele>207.3</ele>
        <time>2012-12-23T09:41:16Z</time>
      </trkpt>
      <trkpt lat="44.63645" lon="0.89015">
        <ele>202.01</ele>
        <time>2012-12-23T09:41:22Z</time>
      </trkpt>
      <trkpt lat="44.63634" lon="0.89044">
        <ele>198.65</ele>
        <time>2012-12-23T09:41:30Z</time>
      </trkpt>
      <trkpt lat="44.63631" lon="0.8905">
        <ele>197.69</ele>
        <time>2012-12-23T09:41:33Z</time>
      </trkpt>
      <trkpt lat="44.63628" lon="0.89055">
        <ele>197.21</ele>
        <time>2012-12-23T09:41:36Z</time>
      </trkpt>
      <trkpt lat="44.63632" lon="0.89071">
        <ele>194.8</ele>
        <time>2012-12-23T09:41:48Z</time>
      </trkpt>
      <trkpt lat="44.63636" lon="0.89079">
        <ele>195.77</ele>
        <time>2012-12-23T09:42:01Z</time>
      </trkpt>
      <trkpt lat="44.6364" lon="0.89089">
        <ele>199.61</ele>
        <time>2012-12-23T09:42:13Z</time>
      </trkpt>
      <trkpt lat="44.63654" lon="0.89119">
        <ele>196.73</ele>
        <time>2012-12-23T09:42:23Z</time>
      </trkpt>
      <trkpt lat="44.63672" lon="0.89168">
        <ele>199.61</ele>
        <time>2012-12-23T09:42:36Z</time>
      </trkpt>
      <trkpt lat="44.63685" lon="0.89204">
        <ele>204.42</ele>
        <time>2012-12-23T09:42:47Z</time>
      </trkpt>
      <trkpt lat="44.63686" lon="0.89211">
        <ele>204.9</ele>
        <time>2012-12-23T09:42:49Z</time>
      </trkpt>
      <trkpt lat="44.63671" lon="0.89233">
        <ele>207.78</ele>
        <time>2012-12-23T09:43:01Z</time>
      </trkpt>
      <trkpt lat="44.6365" lon="0.89257">
        <ele>214.03</ele>
        <time>2012-12-23T09:43:14Z</time>
      </trkpt>
      <trkpt lat="44.63637" lon="0.89286">
        <ele>214.03</ele>
        <time>2012-12-23T09:43:26Z</time>
      </trkpt>
      <trkpt lat="44.63635" lon="0.89321">
        <ele>213.55</ele>
        <time>2012-12-23T09:43:38Z</time>
      </trkpt>
      <trkpt lat="44.63628" lon="0.89365">
        <ele>214.99</ele>
        <time>2012-12-23T09:43:53Z</time>
      </trkpt>
      <trkpt lat="44.63619" lon="0.89404">
        <ele>214.03</ele>
        <time>2012-12-23T09:44:06Z</time>
      </trkpt>
      <trkpt lat="44.63612" lon="0.89417">
        <ele>213.07</ele>
        <time>2012-12-23T09:44:11Z</time>
      </trkpt>
      <trkpt lat="44.63601" lon="0.89419">
        <ele>211.63</ele>
        <time>2012-12-23T09:44:17Z</time>
      </trkpt>
      <trkpt lat="44.63573" lon="0.89403">
        <ele>212.11</ele>
        <time>2012-12-23T09:44:29Z</time>
      </trkpt>
      <trkpt lat="44.63541" lon="0.89391">
        <ele>214.99</ele>
        <time>2012-12-23T09:44:41Z</time>
      </trkpt>
      <trkpt lat="44.63534" lon="0.89397">
        <ele>214.99</ele>
        <time>2012-12-23T09:44:45Z</time>
      </trkpt>
      <trkpt lat="44.63514" lon="0.89392">
        <ele>214.03</ele>
        <time>2012-12-23T09:44:54Z</time>
      </trkpt>
      <trkpt lat="44.6349" lon="0.89375">
        <ele>212.11</ele>
        <time>2012-12-23T09:45:02Z</time>
      </trkpt>
      <trkpt lat="44.63473" lon="0.8939">
        <ele>210.67</ele>
        <time>2012-12-23T09:45:10Z</time>
      </trkpt>
      <trkpt lat="44.6347" lon="0.89398">
        <ele>209.7</ele>
        <time>2012-12-23T09:45:12Z</time>
      </trkpt>
      <trkpt lat="44.63457" lon="0.89427">
        <ele>207.3</ele>
        <time>2012-12-23T09:45:19Z</time>
      </trkpt>
      <trkpt lat="44.6344" lon="0.89425">
        <ele>204.9</ele>
        <time>2012-12-23T09:45:24Z</time>
      </trkpt>
      <trkpt lat="44.6343" lon="0.89427">
        <ele>203.94</ele>
        <time>2012-12-23T09:45:26Z</time>
      </trkpt>
      <trkpt lat="44.63408" lon="0.89429">
        <ele>201.05</ele>
        <time>2012-12-23T09:45:30Z</time>
      </trkpt>
      <trkpt lat="44.63367" lon="0.89434">
        <ele>194.8</ele>
        <time>2012-12-23T09:45:36Z</time>
      </trkpt>
      <trkpt lat="44.6335" lon="0.89443">
        <ele>192.88</ele>
        <time>2012-12-23T09:45:39Z</time>
      </trkpt>
      <trkpt lat="44.63313" lon="0.89468">
        <ele>185.67</ele>
        <time>2012-12-23T09:45:46Z</time>
      </trkpt>
      <trkpt lat="44.63294" lon="0.89492">
        <ele>179.9</ele>
        <time>2012-12-23T09:45:55Z</time>
      </trkpt>
      <trkpt lat="44.63298" lon="0.89493">
        <ele>179.9</ele>
        <time>2012-12-23T09:45:57Z</time>
      </trkpt>
      <trkpt lat="44.63318" lon="0.89494">
        <ele>179.42</ele>
        <time>2012-12-23T09:46:07Z</time>
      </trkpt>
      <trkpt lat="44.63325" lon="0.8951">
        <ele>178.94</ele>
        <time>2012-12-23T09:46:14Z</time>
      </trkpt>
      <trkpt lat="44.63322" lon="0.89556">
        <ele>179.42</ele>
        <time>2012-12-23T09:46:25Z</time>
      </trkpt>
      <trkpt lat="44.63323" lon="0.89575">
        <ele>180.38</ele>
        <time>2012-12-23T09:46:33Z</time>
      </trkpt>
      <trkpt lat="44.63327" lon="0.89588">
        <ele>180.38</ele>
        <time>2012-12-23T09:46:38Z</time>
      </trkpt>
      <trkpt lat="44.63345" lon="0.89606">
        <ele>176.54</ele>
        <time>2012-12-23T09:46:47Z</time>
      </trkpt>
      <trkpt lat="44.63347" lon="0.89608">
        <ele>176.06</ele>
        <time>2012-12-23T09:46:48Z</time>
      </trkpt>
      <trkpt lat="44.6335" lon="0.89646">
        <ele>176.54</ele>
        <time>2012-12-23T09:47:00Z</time>
      </trkpt>
      <trkpt lat="44.63348" lon="0.89692">
        <ele>176.06</ele>
        <time>2012-12-23T09:47:14Z</time>
      </trkpt>
      <trkpt lat="44.63362" lon="0.89731">
        <ele>176.06</ele>
        <time>2012-12-23T09:47:26Z</time>
      </trkpt>
      <trkpt lat="44.63364" lon="0.89765">
        <ele>176.06</ele>
        <time>2012-12-23T09:47:38Z</time>
      </trkpt>
      <trkpt lat="44.6338" lon="0.89801">
        <ele>176.06</ele>
        <time>2012-12-23T09:47:51Z</time>
      </trkpt>
      <trkpt lat="44.63395" lon="0.89828">
        <ele>176.54</ele>
        <time>2012-12-23T09:48:03Z</time>
      </trkpt>
      <trkpt lat="44.63416" lon="0.89869">
        <ele>177.98</ele>
        <time>2012-12-23T09:48:17Z</time>
      </trkpt>
      <trkpt lat="44.63433" lon="0.89897">
        <ele>178.46</ele>
        <time>2012-12-23T09:48:28Z</time>
      </trkpt>
      <trkpt lat="44.63429" lon="0.89912">
        <ele>178.46</ele>
        <time>2012-12-23T09:48:35Z</time>
      </trkpt>
      <trkpt lat="44.6342" lon="0.89941">
        <ele>177.5</ele>
        <time>2012-12-23T09:48:46Z</time>
      </trkpt>
      <trkpt lat="44.63403" lon="0.89992">
        <ele>179.42</ele>
        <time>2012-12-23T09:49:01Z</time>
      </trkpt>
      <trkpt lat="44.63406" lon="0.9004">
        <ele>181.83</ele>
        <time>2012-12-23T09:49:14Z</time>
      </trkpt>
      <trkpt lat="44.63403" lon="0.90087">
        <ele>182.31</ele>
        <time>2012-12-23T09:49:27Z</time>
      </trkpt>
      <trkpt lat="44.63395" lon="0.90136">
        <ele>179.42</ele>
        <time>2012-12-23T09:49:38Z</time>
      </trkpt>
      <trkpt lat="44.63389" lon="0.90146">
        <ele>179.42</ele>
        <time>2012-12-23T09:49:41Z</time>
      </trkpt>
      <trkpt lat="44.63396" lon="0.90174">
        <ele>179.9</ele>
        <time>2012-12-23T09:49:49Z</time>
      </trkpt>
      <trkpt lat="44.63402" lon="0.90223">
        <ele>180.38</ele>
        <time>2012-12-23T09:50:01Z</time>
      </trkpt>
      <trkpt lat="44.63409" lon="0.90269">
        <ele>179.9</ele>
        <time>2012-12-23T09:50:11Z</time>
      </trkpt>
      <trkpt lat="44.63392" lon="0.90286">
        <ele>183.75</ele>
        <time>2012-12-23T09:50:19Z</time>
      </trkpt>
      <trkpt lat="44.63389" lon="0.90292">
        <ele>187.11</ele>
        <time>2012-12-23T09:50:32Z</time>
      </trkpt>
      <trkpt lat="44.63388" lon="0.90294">
        <ele>187.59</ele>
        <time>2012-12-23T09:50:51Z</time>
      </trkpt>
      <trkpt lat="44.63386" lon="0.90293">
        <ele>185.67</ele>
        <time>2012-12-23T09:51:17Z</time>
      </trkpt>
      <trkpt lat="44.63387" lon="0.90296">
        <ele>187.59</ele>
        <time>2012-12-23T09:51:36Z</time>
      </trkpt>
      <trkpt lat="44.6337" lon="0.90302">
        <ele>187.11</ele>
        <time>2012-12-23T09:51:52Z</time>
      </trkpt>
      <trkpt lat="44.63311" lon="0.90309">
        <ele>185.19</ele>
        <time>2012-12-23T09:52:04Z</time>
      </trkpt>
      <trkpt lat="44.63222" lon="0.90293">
        <ele>186.15</ele>
        <time>2012-12-23T09:52:22Z</time>
      </trkpt>
      <trkpt lat="44.63135" lon="0.90297">
        <ele>188.56</ele>
        <time>2012-12-23T09:52:40Z</time>
      </trkpt>
      <trkpt lat="44.63066" lon="0.90303">
        <ele>193.84</ele>
        <time>2012-12-23T09:52:56Z</time>
      </trkpt>
      <trkpt lat="44.63037" lon="0.90307">
        <ele>198.65</ele>
        <time>2012-12-23T09:53:08Z</time>
      </trkpt>
      <trkpt lat="44.63016" lon="0.90333">
        <ele>198.17</ele>
        <time>2012-12-23T09:53:18Z</time>
      </trkpt>
      <trkpt lat="44.63004" lon="0.90355">
        <ele>195.77</ele>
        <time>2012-12-23T09:53:22Z</time>
      </trkpt>
      <trkpt lat="44.62984" lon="0.90404">
        <ele>190</ele>
        <time>2012-12-23T09:53:29Z</time>
      </trkpt>
      <trkpt lat="44.62968" lon="0.90473">
        <ele>179.42</ele>
        <time>2012-12-23T09:53:42Z</time>
      </trkpt>
      <trkpt lat="44.62951" lon="0.90506">
        <ele>180.38</ele>
        <time>2012-12-23T09:53:52Z</time>
      </trkpt>
      <trkpt lat="44.62927" lon="0.90528">
        <ele>186.15</ele>
        <time>2012-12-23T09:54:03Z</time>
      </trkpt>
      <trkpt lat="44.62904" lon="0.90529">
        <ele>189.04</ele>
        <time>2012-12-23T09:54:10Z</time>
      </trkpt>
      <trkpt lat="44.62879" lon="0.90557">
        <ele>191.44</ele>
        <time>2012-12-23T09:54:21Z</time>
      </trkpt>
      <trkpt lat="44.62842" lon="0.90604">
        <ele>185.67</ele>
        <time>2012-12-23T09:54:36Z</time>
      </trkpt>
      <trkpt lat="44.62826" lon="0.90615">
        <ele>181.83</ele>
        <time>2012-12-23T09:54:44Z</time>
      </trkpt>
      <trkpt lat="44.62818" lon="0.90621">
        <ele>180.38</ele>
        <time>2012-12-23T09:54:48Z</time>
      </trkpt>
      <trkpt lat="44.62811" lon="0.9063">
        <ele>179.9</ele>
        <time>2012-12-23T09:54:51Z</time>
      </trkpt>
      <trkpt lat="44.62797" lon="0.90668">
        <ele>185.67</ele>
        <time>2012-12-23T09:55:03Z</time>
      </trkpt>
      <trkpt lat="44.6279" lon="0.90686">
        <ele>188.56</ele>
        <time>2012-12-23T09:55:09Z</time>
      </trkpt>
      <trkpt lat="44.62789" lon="0.90698">
        <ele>192.4</ele>
        <time>2012-12-23T09:55:14Z</time>
      </trkpt>
      <trkpt lat="44.6278" lon="0.90732">
        <ele>198.17</ele>
        <time>2012-12-23T09:55:25Z</time>
      </trkpt>
      <trkpt lat="44.62777" lon="0.90747">
        <ele>200.09</ele>
        <time>2012-12-23T09:55:30Z</time>
      </trkpt>
      <trkpt lat="44.6277" lon="0.9077">
        <ele>202.98</ele>
        <time>2012-12-23T09:55:39Z</time>
      </trkpt>
      <trkpt lat="44.62761" lon="0.90781">
        <ele>203.94</ele>
        <time>2012-12-23T09:55:47Z</time>
      </trkpt>
      <trkpt lat="44.62757" lon="0.90789">
        <ele>203.94</ele>
        <time>2012-12-23T09:55:51Z</time>
      </trkpt>
      <trkpt lat="44.62744" lon="0.90808">
        <ele>208.26</ele>
        <time>2012-12-23T09:56:05Z</time>
      </trkpt>
      <trkpt lat="44.62733" lon="0.90819">
        <ele>214.03</ele>
        <time>2012-12-23T09:56:17Z</time>
      </trkpt>
      <trkpt lat="44.62725" lon="0.90819">
        <ele>216.43</ele>
        <time>2012-12-23T09:56:40Z</time>
      </trkpt>
      <trkpt lat="44.62723" lon="0.90821">
        <ele>217.4</ele>
        <time>2012-12-23T09:56:49Z</time>
      </trkpt>
      <trkpt lat="44.62708" lon="0.90842">
        <ele>218.36</ele>
        <time>2012-12-23T09:57:01Z</time>
      </trkpt>
      <trkpt lat="44.62673" lon="0.90863">
        <ele>219.32</ele>
        <time>2012-12-23T09:57:13Z</time>
      </trkpt>
      <trkpt lat="44.62645" lon="0.90869">
        <ele>221.24</ele>
        <time>2012-12-23T09:57:21Z</time>
      </trkpt>
      <trkpt lat="44.6262" lon="0.90883">
        <ele>222.2</ele>
        <time>2012-12-23T09:57:30Z</time>
      </trkpt>
      <trkpt lat="44.62591" lon="0.90904">
        <ele>224.12</ele>
        <time>2012-12-23T09:57:41Z</time>
      </trkpt>
      <trkpt lat="44.62554" lon="0.90929">
        <ele>224.61</ele>
        <time>2012-12-23T09:57:53Z</time>
      </trkpt>
      <trkpt lat="44.62544" lon="0.90934">
        <ele>225.57</ele>
        <time>2012-12-23T09:57:58Z</time>
      </trkpt>
      <trkpt lat="44.62538" lon="0.90947">
        <ele>227.01</ele>
        <time>2012-12-23T09:58:02Z</time>
      </trkpt>
      <trkpt lat="44.62538" lon="0.90959">
        <ele>227.49</ele>
        <time>2012-12-23T09:58:06Z</time>
      </trkpt>
      <trkpt lat="44.6254" lon="0.90966">
        <ele>227.01</ele>
        <time>2012-12-23T09:58:08Z</time>
      </trkpt>
      <trkpt lat="44.62531" lon="0.90982">
        <ele>226.05</ele>
        <time>2012-12-23T09:58:14Z</time>
      </trkpt>
      <trkpt lat="44.6252" lon="0.91008">
        <ele>224.12</ele>
        <time>2012-12-23T09:58:22Z</time>
      </trkpt>
      <trkpt lat="44.62509" lon="0.9103">
        <ele>224.61</ele>
        <time>2012-12-23T09:58:29Z</time>
      </trkpt>
      <trkpt lat="44.62474" lon="0.91062">
        <ele>229.89</ele>
        <time>2012-12-23T09:58:41Z</time>
      </trkpt>
      <trkpt lat="44.62454" lon="0.9109">
        <ele>232.3</ele>
        <time>2012-12-23T09:58:51Z</time>
      </trkpt>
      <trkpt lat="44.62448" lon="0.91124">
        <ele>233.74</ele>
        <time>2012-12-23T09:58:59Z</time>
      </trkpt>
      <trkpt lat="44.62452" lon="0.91152">
        <ele>235.66</ele>
        <time>2012-12-23T09:59:05Z</time>
      </trkpt>
      <trkpt lat="44.62449" lon="0.91186">
        <ele>236.62</ele>
        <time>2012-12-23T09:59:13Z</time>
      </trkpt>
      <trkpt lat="44.62448" lon="0.9119">
        <ele>236.62</ele>
        <time>2012-12-23T09:59:14Z</time>
      </trkpt>
      <trkpt lat="44.62423" lon="0.91244">
        <ele>239.51</ele>
        <time>2012-12-23T09:59:25Z</time>
      </trkpt>
      <trkpt lat="44.62402" lon="0.91266">
        <ele>241.43</ele>
        <time>2012-12-23T09:59:33Z</time>
      </trkpt>
      <trkpt lat="44.62399" lon="0.91267">
        <ele>241.91</ele>
        <time>2012-12-23T09:59:35Z</time>
      </trkpt>
      <trkpt lat="44.62393" lon="0.91262">
        <ele>239.99</ele>
        <time>2012-12-23T09:59:47Z</time>
      </trkpt>
      <trkpt lat="44.62391" lon="0.91263">
        <ele>240.95</ele>
        <time>2012-12-23T10:00:09Z</time>
      </trkpt>
      <trkpt lat="44.62389" lon="0.91259">
        <ele>242.87</ele>
        <time>2012-12-23T10:00:36Z</time>
      </trkpt>
      <trkpt lat="44.62375" lon="0.91228">
        <ele>239.99</ele>
        <time>2012-12-23T10:00:48Z</time>
      </trkpt>
      <trkpt lat="44.62348" lon="0.91175">
        <ele>237.1</ele>
        <time>2012-12-23T10:01:02Z</time>
      </trkpt>
      <trkpt lat="44.62322" lon="0.91136">
        <ele>235.18</ele>
        <time>2012-12-23T10:01:13Z</time>
      </trkpt>
      <trkpt lat="44.6229" lon="0.91091">
        <ele>238.06</ele>
        <time>2012-12-23T10:01:26Z</time>
      </trkpt>
      <trkpt lat="44.62264" lon="0.9105">
        <ele>238.54</ele>
        <time>2012-12-23T10:01:37Z</time>
      </trkpt>
      <trkpt lat="44.6225" lon="0.91016">
        <ele>237.1</ele>
        <time>2012-12-23T10:01:43Z</time>
      </trkpt>
      <trkpt lat="44.62233" lon="0.90967">
        <ele>237.58</ele>
        <time>2012-12-23T10:01:52Z</time>
      </trkpt>
      <trkpt lat="44.62212" lon="0.90877">
        <ele>237.1</ele>
        <time>2012-12-23T10:02:06Z</time>
      </trkpt>
      <trkpt lat="44.62209" lon="0.90853">
        <ele>236.14</ele>
        <time>2012-12-23T10:02:10Z</time>
      </trkpt>
      <trkpt lat="44.62206" lon="0.90817">
        <ele>234.22</ele>
        <time>2012-12-23T10:02:16Z</time>
      </trkpt>
      <trkpt lat="44.62188" lon="0.90741">
        <ele>229.41</ele>
        <time>2012-12-23T10:02:30Z</time>
      </trkpt>
      <trkpt lat="44.62181" lon="0.90702">
        <ele>227.97</ele>
        <time>2012-12-23T10:02:35Z</time>
      </trkpt>
      <trkpt lat="44.62154" lon="0.90602">
        <ele>223.64</ele>
        <time>2012-12-23T10:02:45Z</time>
      </trkpt>
      <trkpt lat="44.62103" lon="0.90523">
        <ele>220.28</ele>
        <time>2012-12-23T10:02:53Z</time>
      </trkpt>
      <trkpt lat="44.62092" lon="0.905">
        <ele>219.32</ele>
        <time>2012-12-23T10:02:55Z</time>
      </trkpt>
      <trkpt lat="44.62064" lon="0.90461">
        <ele>217.4</ele>
        <time>2012-12-23T10:02:59Z</time>
      </trkpt>
      <trkpt lat="44.62029" lon="0.90434">
        <ele>215.47</ele>
        <time>2012-12-23T10:03:03Z</time>
      </trkpt>
      <trkpt lat="44.61982" lon="0.90373">
        <ele>214.03</ele>
        <time>2012-12-23T10:03:10Z</time>
      </trkpt>
      <trkpt lat="44.61939" lon="0.90344">
        <ele>213.55</ele>
        <time>2012-12-23T10:03:15Z</time>
      </trkpt>
      <trkpt lat="44.6186" lon="0.90279">
        <ele>209.7</ele>
        <time>2012-12-23T10:03:24Z</time>
      </trkpt>
      <trkpt lat="44.61832" lon="0.90233">
        <ele>206.82</ele>
        <time>2012-12-23T10:03:28Z</time>
      </trkpt>
      <trkpt lat="44.6176" lon="0.90077">
        <ele>200.57</ele>
        <time>2012-12-23T10:03:40Z</time>
      </trkpt>
      <trkpt lat="44.61743" lon="0.90037">
        <ele>202.01</ele>
        <time>2012-12-23T10:03:47Z</time>
      </trkpt>
      <trkpt lat="44.61742" lon="0.90037">
        <ele>202.49</ele>
        <time>2012-12-23T10:03:59Z</time>
      </trkpt>
      <trkpt lat="44.61741" lon="0.90036">
        <ele>203.46</ele>
        <time>2012-12-23T10:04:23Z</time>
      </trkpt>
      <trkpt lat="44.61739" lon="0.90035">
        <ele>204.9</ele>
        <time>2012-12-23T10:04:41Z</time>
      </trkpt>
      <trkpt lat="44.61736" lon="0.9003">
        <ele>205.38</ele>
        <time>2012-12-23T10:04:56Z</time>
      </trkpt>
      <trkpt lat="44.61721" lon="0.89992">
        <ele>203.46</ele>
        <time>2012-12-23T10:05:05Z</time>
      </trkpt>
      <trkpt lat="44.61678" lon="0.8988">
        <ele>200.57</ele>
        <time>2012-12-23T10:05:18Z</time>
      </trkpt>
      <trkpt lat="44.61625" lon="0.89763">
        <ele>198.17</ele>
        <time>2012-12-23T10:05:29Z</time>
      </trkpt>
      <trkpt lat="44.61616" lon="0.8974">
        <ele>197.69</ele>
        <time>2012-12-23T10:05:31Z</time>
      </trkpt>
      <trkpt lat="44.61602" lon="0.89678">
        <ele>196.25</ele>
        <time>2012-12-23T10:05:36Z</time>
      </trkpt>
      <trkpt lat="44.61597" lon="0.89626">
        <ele>194.8</ele>
        <time>2012-12-23T10:05:40Z</time>
      </trkpt>
      <trkpt lat="44.616" lon="0.89586">
        <ele>193.36</ele>
        <time>2012-12-23T10:05:43Z</time>
      </trkpt>
      <trkpt lat="44.61605" lon="0.89549">
        <ele>191.92</ele>
        <time>2012-12-23T10:05:46Z</time>
      </trkpt>
      <trkpt lat="44.61613" lon="0.89512">
        <ele>190.48</ele>
        <time>2012-12-23T10:05:49Z</time>
      </trkpt>
      <trkpt lat="44.61618" lon="0.89457">
        <ele>189.52</ele>
        <time>2012-12-23T10:05:53Z</time>
      </trkpt>
      <trkpt lat="44.61617" lon="0.8943">
        <ele>189.04</ele>
        <time>2012-12-23T10:05:55Z</time>
      </trkpt>
      <trkpt lat="44.61609" lon="0.89364">
        <ele>188.08</ele>
        <time>2012-12-23T10:06:00Z</time>
      </trkpt>
      <trkpt lat="44.61571" lon="0.89235">
        <ele>187.59</ele>
        <time>2012-12-23T10:06:11Z</time>
      </trkpt>
      <trkpt lat="44.61541" lon="0.89069">
        <ele>185.19</ele>
        <time>2012-12-23T10:06:25Z</time>
      </trkpt>
      <trkpt lat="44.61525" lon="0.89031">
        <ele>184.23</ele>
        <time>2012-12-23T10:06:29Z</time>
      </trkpt>
      <trkpt lat="44.61501" lon="0.89">
        <ele>184.23</ele>
        <time>2012-12-23T10:06:33Z</time>
      </trkpt>
      <trkpt lat="44.61406" lon="0.88923">
        <ele>182.79</ele>
        <time>2012-12-23T10:06:46Z</time>
      </trkpt>
      <trkpt lat="44.61329" lon="0.88843">
        <ele>180.38</ele>
        <time>2012-12-23T10:06:58Z</time>
      </trkpt>
      <trkpt lat="44.61269" lon="0.88799">
        <ele>181.35</ele>
        <time>2012-12-23T10:07:09Z</time>
      </trkpt>
      <trkpt lat="44.61197" lon="0.88732">
        <ele>181.83</ele>
        <time>2012-12-23T10:07:23Z</time>
      </trkpt>
      <trkpt lat="44.61163" lon="0.88696">
        <ele>183.27</ele>
        <time>2012-12-23T10:07:30Z</time>
      </trkpt>
      <trkpt lat="44.61155" lon="0.88687">
        <ele>183.75</ele>
        <time>2012-12-23T10:07:32Z</time>
      </trkpt>
      <trkpt lat="44.61117" lon="0.88661">
        <ele>184.71</ele>
        <time>2012-12-23T10:07:44Z</time>
      </trkpt>
      <trkpt lat="44.61109" lon="0.88651">
        <ele>184.23</ele>
        <time>2012-12-23T10:07:47Z</time>
      </trkpt>
      <trkpt lat="44.61102" lon="0.88644">
        <ele>183.75</ele>
        <time>2012-12-23T10:07:49Z</time>
      </trkpt>
      <trkpt lat="44.61062" lon="0.88595">
        <ele>184.71</ele>
        <time>2012-12-23T10:08:00Z</time>
      </trkpt>
      <trkpt lat="44.61047" lon="0.88581">
        <ele>187.11</ele>
        <time>2012-12-23T10:08:04Z</time>
      </trkpt>
      <trkpt lat="44.61038" lon="0.88569">
        <ele>188.56</ele>
        <time>2012-12-23T10:08:07Z</time>
      </trkpt>
      <trkpt lat="44.61022" lon="0.88539">
        <ele>190.96</ele>
        <time>2012-12-23T10:08:13Z</time>
      </trkpt>
      <trkpt lat="44.61005" lon="0.88515">
        <ele>190</ele>
        <time>2012-12-23T10:08:26Z</time>
      </trkpt>
      <trkpt lat="44.61005" lon="0.88514">
        <ele>190.48</ele>
        <time>2012-12-23T10:08:46Z</time>
      </trkpt>
      <trkpt lat="44.61003" lon="0.88513">
        <ele>190</ele>
        <time>2012-12-23T10:09:07Z</time>
      </trkpt>
      <trkpt lat="44.61004" lon="0.88513">
        <ele>190.48</ele>
        <time>2012-12-23T10:09:22Z</time>
      </trkpt>
      <trkpt lat="44.61005" lon="0.88513">
        <ele>191.92</ele>
        <time>2012-12-23T10:09:46Z</time>
      </trkpt>
      <trkpt lat="44.61005" lon="0.88513">
        <ele>191.92</ele>
        <time>2012-12-23T10:09:50Z</time>
      </trkpt>
      <trkpt lat="44.61005" lon="0.88507">
        <ele>191.92</ele>
        <time>2012-12-23T10:09:54Z</time>
      </trkpt>
      <trkpt lat="44.61005" lon="0.88502">
        <ele>192.4</ele>
        <time>2012-12-23T10:09:56Z</time>
      </trkpt>
      <trkpt lat="44.61004" lon="0.8849">
        <ele>192.4</ele>
        <time>2012-12-23T10:10:01Z</time>
      </trkpt>
      <trkpt lat="44.60983" lon="0.88452">
        <ele>195.28</ele>
        <time>2012-12-23T10:10:14Z</time>
      </trkpt>
      <trkpt lat="44.60965" lon="0.88426">
        <ele>198.17</ele>
        <time>2012-12-23T10:10:23Z</time>
      </trkpt>
      <trkpt lat="44.60945" lon="0.88411">
        <ele>197.69</ele>
        <time>2012-12-23T10:10:31Z</time>
      </trkpt>
      <trkpt lat="44.60947" lon="0.88387">
        <ele>196.25</ele>
        <time>2012-12-23T10:10:38Z</time>
      </trkpt>
      <trkpt lat="44.60924" lon="0.88367">
        <ele>196.25</ele>
        <time>2012-12-23T10:10:45Z</time>
      </trkpt>
      <trkpt lat="44.60919" lon="0.88366">
        <ele>196.73</ele>
        <time>2012-12-23T10:10:46Z</time>
      </trkpt>
      <trkpt lat="44.60898" lon="0.88361">
        <ele>198.17</ele>
        <time>2012-12-23T10:10:51Z</time>
      </trkpt>
      <trkpt lat="44.60874" lon="0.88352">
        <ele>201.05</ele>
        <time>2012-12-23T10:11:01Z</time>
      </trkpt>
      <trkpt lat="44.60861" lon="0.88348">
        <ele>203.94</ele>
        <time>2012-12-23T10:11:11Z</time>
      </trkpt>
      <trkpt lat="44.60855" lon="0.88347">
        <ele>204.42</ele>
        <time>2012-12-23T10:11:13Z</time>
      </trkpt>
      <trkpt lat="44.60851" lon="0.88306">
        <ele>200.57</ele>
        <time>2012-12-23T10:11:20Z</time>
      </trkpt>
      <trkpt lat="44.6085" lon="0.88256">
        <ele>195.77</ele>
        <time>2012-12-23T10:11:25Z</time>
      </trkpt>
      <trkpt lat="44.6085" lon="0.88198">
        <ele>189.52</ele>
        <time>2012-12-23T10:11:31Z</time>
      </trkpt>
      <trkpt lat="44.60846" lon="0.88173">
        <ele>187.11</ele>
        <time>2012-12-23T10:11:34Z</time>
      </trkpt>
      <trkpt lat="44.60821" lon="0.88163">
        <ele>183.75</ele>
        <time>2012-12-23T10:11:40Z</time>
      </trkpt>
      <trkpt lat="44.60816" lon="0.88166">
        <ele>182.79</ele>
        <time>2012-12-23T10:11:41Z</time>
      </trkpt>
      <trkpt lat="44.60782" lon="0.88163">
        <ele>181.35</ele>
        <time>2012-12-23T10:11:46Z</time>
      </trkpt>
      <trkpt lat="44.60768" lon="0.88158">
        <ele>180.87</ele>
        <time>2012-12-23T10:11:48Z</time>
      </trkpt>
      <trkpt lat="44.60748" lon="0.88149">
        <ele>180.87</ele>
        <time>2012-12-23T10:11:51Z</time>
      </trkpt>
      <trkpt lat="44.60718" lon="0.88141">
        <ele>180.38</ele>
        <time>2012-12-23T10:11:55Z</time>
      </trkpt>
      <trkpt lat="44.60676" lon="0.88091">
        <ele>178.46</ele>
        <time>2012-12-23T10:12:02Z</time>
      </trkpt>
      <trkpt lat="44.60665" lon="0.88074">
        <ele>178.46</ele>
        <time>2012-12-23T10:12:04Z</time>
      </trkpt>
      <trkpt lat="44.60643" lon="0.88026">
        <ele>177.5</ele>
        <time>2012-12-23T10:12:09Z</time>
      </trkpt>
      <trkpt lat="44.60623" lon="0.87983">
        <ele>176.54</ele>
        <time>2012-12-23T10:12:13Z</time>
      </trkpt>
      <trkpt lat="44.60607" lon="0.87937">
        <ele>176.06</ele>
        <time>2012-12-23T10:12:17Z</time>
      </trkpt>
      <trkpt lat="44.60592" lon="0.87901">
        <ele>174.62</ele>
        <time>2012-12-23T10:12:21Z</time>
      </trkpt>
      <trkpt lat="44.60563" lon="0.87862">
        <ele>172.21</ele>
        <time>2012-12-23T10:12:27Z</time>
      </trkpt>
      <trkpt lat="44.60539" lon="0.87819">
        <ele>170.77</ele>
        <time>2012-12-23T10:12:32Z</time>
      </trkpt>
      <trkpt lat="44.60527" lon="0.87795">
        <ele>169.81</ele>
        <time>2012-12-23T10:12:35Z</time>
      </trkpt>
      <trkpt lat="44.605" lon="0.87752">
        <ele>169.81</ele>
        <time>2012-12-23T10:12:44Z</time>
      </trkpt>
      <trkpt lat="44.60495" lon="0.87744">
        <ele>170.29</ele>
        <time>2012-12-23T10:12:52Z</time>
      </trkpt>
      <trkpt lat="44.60492" lon="0.87743">
        <ele>173.66</ele>
        <time>2012-12-23T10:13:16Z</time>
      </trkpt>
      <trkpt lat="44.60492" lon="0.87741">
        <ele>174.14</ele>
        <time>2012-12-23T10:13:36Z</time>
      </trkpt>
      <trkpt lat="44.60479" lon="0.87703">
        <ele>174.62</ele>
        <time>2012-12-23T10:13:49Z</time>
      </trkpt>
      <trkpt lat="44.60465" lon="0.8765">
        <ele>172.69</ele>
        <time>2012-12-23T10:14:00Z</time>
      </trkpt>
      <trkpt lat="44.60464" lon="0.87648">
        <ele>172.69</ele>
        <time>2012-12-23T10:14:01Z</time>
      </trkpt>
      <trkpt lat="44.60458" lon="0.8763">
        <ele>171.73</ele>
        <time>2012-12-23T10:14:06Z</time>
      </trkpt>
      <trkpt lat="44.60452" lon="0.87608">
        <ele>170.77</ele>
        <time>2012-12-23T10:14:09Z</time>
      </trkpt>
      <trkpt lat="44.6044" lon="0.87577">
        <ele>169.33</ele>
        <time>2012-12-23T10:14:13Z</time>
      </trkpt>
      <trkpt lat="44.60414" lon="0.87533">
        <ele>167.41</ele>
        <time>2012-12-23T10:14:20Z</time>
      </trkpt>
      <trkpt lat="44.60385" lon="0.87502">
        <ele>164.52</ele>
        <time>2012-12-23T10:14:24Z</time>
      </trkpt>
      <trkpt lat="44.60323" lon="0.87407">
        <ele>157.79</ele>
        <time>2012-12-23T10:14:33Z</time>
      </trkpt>
      <trkpt lat="44.60302" lon="0.87377">
        <ele>155.39</ele>
        <time>2012-12-23T10:14:36Z</time>
      </trkpt>
      <trkpt lat="44.60276" lon="0.87357">
        <ele>153.47</ele>
        <time>2012-12-23T10:14:40Z</time>
      </trkpt>
      <trkpt lat="44.60259" lon="0.87332">
        <ele>152.03</ele>
        <time>2012-12-23T10:14:46Z</time>
      </trkpt>
      <trkpt lat="44.6024" lon="0.8731">
        <ele>152.03</ele>
        <time>2012-12-23T10:14:51Z</time>
      </trkpt>
      <trkpt lat="44.60152" lon="0.87306">
        <ele>152.51</ele>
        <time>2012-12-23T10:15:07Z</time>
      </trkpt>
      <trkpt lat="44.60136" lon="0.87307">
        <ele>152.03</ele>
        <time>2012-12-23T10:15:10Z</time>
      </trkpt>
      <trkpt lat="44.60061" lon="0.87288">
        <ele>152.03</ele>
        <time>2012-12-23T10:15:25Z</time>
      </trkpt>
      <trkpt lat="44.60041" lon="0.87285">
        <ele>152.03</ele>
        <time>2012-12-23T10:15:33Z</time>
      </trkpt>
      <trkpt lat="44.60025" lon="0.87294">
        <ele>154.43</ele>
        <time>2012-12-23T10:15:49Z</time>
      </trkpt>
      <trkpt lat="44.60024" lon="0.87294">
        <ele>155.39</ele>
        <time>2012-12-23T10:16:11Z</time>
      </trkpt>
      <trkpt lat="44.60023" lon="0.87292">
        <ele>154.43</ele>
        <time>2012-12-23T10:16:36Z</time>
      </trkpt>
      <trkpt lat="44.60013" lon="0.87294">
        <ele>155.87</ele>
        <time>2012-12-23T10:16:59Z</time>
      </trkpt>
      <trkpt lat="44.59984" lon="0.8728">
        <ele>159.72</ele>
        <time>2012-12-23T10:17:14Z</time>
      </trkpt>
      <trkpt lat="44.59968" lon="0.87252">
        <ele>164.04</ele>
        <time>2012-12-23T10:17:26Z</time>
      </trkpt>
      <trkpt lat="44.59936" lon="0.87212">
        <ele>164.52</ele>
        <time>2012-12-23T10:17:40Z</time>
      </trkpt>
      <trkpt lat="44.59908" lon="0.87192">
        <ele>164.04</ele>
        <time>2012-12-23T10:17:48Z</time>
      </trkpt>
      <trkpt lat="44.599" lon="0.87189">
        <ele>163.56</ele>
        <time>2012-12-23T10:17:50Z</time>
      </trkpt>
      <trkpt lat="44.59874" lon="0.87197">
        <ele>163.56</ele>
        <time>2012-12-23T10:17:56Z</time>
      </trkpt>
      <trkpt lat="44.5984" lon="0.87249">
        <ele>164.04</ele>
        <time>2012-12-23T10:18:09Z</time>
      </trkpt>
      <trkpt lat="44.59832" lon="0.87265">
        <ele>164.52</ele>
        <time>2012-12-23T10:18:12Z</time>
      </trkpt>
      <trkpt lat="44.59825" lon="0.87275">
        <ele>164.52</ele>
        <time>2012-12-23T10:18:14Z</time>
      </trkpt>
      <trkpt lat="44.59787" lon="0.87325">
        <ele>167.41</ele>
        <time>2012-12-23T10:18:29Z</time>
      </trkpt>
      <trkpt lat="44.59777" lon="0.87336">
        <ele>166.93</ele>
        <time>2012-12-23T10:35:10Z</time>
      </trkpt>
      <trkpt lat="44.59775" lon="0.87358">
        <ele>165.48</ele>
        <time>2012-12-23T10:35:18Z</time>
      </trkpt>
      <trkpt lat="44.5975" lon="0.87401">
        <ele>167.89</ele>
        <time>2012-12-23T10:35:32Z</time>
      </trkpt>
      <trkpt lat="44.59718" lon="0.87446">
        <ele>173.17</ele>
        <time>2012-12-23T10:35:48Z</time>
      </trkpt>
      <trkpt lat="44.59687" lon="0.87485">
        <ele>176.54</ele>
        <time>2012-12-23T10:36:02Z</time>
      </trkpt>
      <trkpt lat="44.59648" lon="0.87528">
        <ele>182.31</ele>
        <time>2012-12-23T10:36:18Z</time>
      </trkpt>
      <trkpt lat="44.59628" lon="0.87561">
        <ele>191.92</ele>
        <time>2012-12-23T10:36:31Z</time>
      </trkpt>
      <trkpt lat="44.59613" lon="0.87599">
        <ele>198.17</ele>
        <time>2012-12-23T10:36:43Z</time>
      </trkpt>
      <trkpt lat="44.59595" lon="0.87656">
        <ele>200.57</ele>
        <time>2012-12-23T10:36:58Z</time>
      </trkpt>
      <trkpt lat="44.59575" lon="0.87707">
        <ele>197.21</ele>
        <time>2012-12-23T10:37:12Z</time>
      </trkpt>
      <trkpt lat="44.59563" lon="0.87702">
        <ele>196.73</ele>
        <time>2012-12-23T10:37:16Z</time>
      </trkpt>
      <trkpt lat="44.59516" lon="0.87646">
        <ele>192.88</ele>
        <time>2012-12-23T10:37:28Z</time>
      </trkpt>
      <trkpt lat="44.59497" lon="0.87627">
        <ele>191.92</ele>
        <time>2012-12-23T10:37:34Z</time>
      </trkpt>
      <trkpt lat="44.59489" lon="0.87633">
        <ele>190</ele>
        <time>2012-12-23T10:37:39Z</time>
      </trkpt>
      <trkpt lat="44.59466" lon="0.8768">
        <ele>188.56</ele>
        <time>2012-12-23T10:37:53Z</time>
      </trkpt>
      <trkpt lat="44.59446" lon="0.87717">
        <ele>191.44</ele>
        <time>2012-12-23T10:38:05Z</time>
      </trkpt>
      <trkpt lat="44.59442" lon="0.87722">
        <ele>191.92</ele>
        <time>2012-12-23T10:38:07Z</time>
      </trkpt>
      <trkpt lat="44.59411" lon="0.87765">
        <ele>193.84</ele>
        <time>2012-12-23T10:38:21Z</time>
      </trkpt>
      <trkpt lat="44.59387" lon="0.87806">
        <ele>204.9</ele>
        <time>2012-12-23T10:38:32Z</time>
      </trkpt>
      <trkpt lat="44.59367" lon="0.87822">
        <ele>206.34</ele>
        <time>2012-12-23T10:38:42Z</time>
      </trkpt>
      <trkpt lat="44.59361" lon="0.87827">
        <ele>206.82</ele>
        <time>2012-12-23T10:38:45Z</time>
      </trkpt>
      <trkpt lat="44.59322" lon="0.87848">
        <ele>203.46</ele>
        <time>2012-12-23T10:39:00Z</time>
      </trkpt>
      <trkpt lat="44.5928" lon="0.87882">
        <ele>197.69</ele>
        <time>2012-12-23T10:39:14Z</time>
      </trkpt>
      <trkpt lat="44.59251" lon="0.87914">
        <ele>192.4</ele>
        <time>2012-12-23T10:39:20Z</time>
      </trkpt>
      <trkpt lat="44.59225" lon="0.87962">
        <ele>185.19</ele>
        <time>2012-12-23T10:39:28Z</time>
      </trkpt>
      <trkpt lat="44.5922" lon="0.87969">
        <ele>184.23</ele>
        <time>2012-12-23T10:39:30Z</time>
      </trkpt>
      <trkpt lat="44.59206" lon="0.87988">
        <ele>183.27</ele>
        <time>2012-12-23T10:39:34Z</time>
      </trkpt>
      <trkpt lat="44.59187" lon="0.88011">
        <ele>182.31</ele>
        <time>2012-12-23T10:39:38Z</time>
      </trkpt>
      <trkpt lat="44.59161" lon="0.88049">
        <ele>179.9</ele>
        <time>2012-12-23T10:39:43Z</time>
      </trkpt>
      <trkpt lat="44.59119" lon="0.88127">
        <ele>173.17</ele>
        <time>2012-12-23T10:39:52Z</time>
      </trkpt>
      <trkpt lat="44.59086" lon="0.88155">
        <ele>169.33</ele>
        <time>2012-12-23T10:39:57Z</time>
      </trkpt>
      <trkpt lat="44.59067" lon="0.88151">
        <ele>167.41</ele>
        <time>2012-12-23T10:40:01Z</time>
      </trkpt>
      <trkpt lat="44.59042" lon="0.88127">
        <ele>166.45</ele>
        <time>2012-12-23T10:40:07Z</time>
      </trkpt>
      <trkpt lat="44.59008" lon="0.88149">
        <ele>164.52</ele>
        <time>2012-12-23T10:40:15Z</time>
      </trkpt>
      <trkpt lat="44.58987" lon="0.8817">
        <ele>160.2</ele>
        <time>2012-12-23T10:40:22Z</time>
      </trkpt>
      <trkpt lat="44.58986" lon="0.88173">
        <ele>159.72</ele>
        <time>2012-12-23T10:40:35Z</time>
      </trkpt>
      <trkpt lat="44.58986" lon="0.88174">
        <ele>158.75</ele>
        <time>2012-12-23T10:40:57Z</time>
      </trkpt>
      <trkpt lat="44.58986" lon="0.88174">
        <ele>159.72</ele>
        <time>2012-12-23T10:41:14Z</time>
      </trkpt>
      <trkpt lat="44.59013" lon="0.88202">
        <ele>160.68</ele>
        <time>2012-12-23T10:41:26Z</time>
      </trkpt>
      <trkpt lat="44.59019" lon="0.88213">
        <ele>159.72</ele>
        <time>2012-12-23T10:41:28Z</time>
      </trkpt>
      <trkpt lat="44.5904" lon="0.88251">
        <ele>155.39</ele>
        <time>2012-12-23T10:41:36Z</time>
      </trkpt>
      <trkpt lat="44.59086" lon="0.88271">
        <ele>152.03</ele>
        <time>2012-12-23T10:41:47Z</time>
      </trkpt>
      <trkpt lat="44.59114" lon="0.88284">
        <ele>150.58</ele>
        <time>2012-12-23T10:41:52Z</time>
      </trkpt>
      <trkpt lat="44.59159" lon="0.88293">
        <ele>153.95</ele>
        <time>2012-12-23T10:42:03Z</time>
      </trkpt>
      <trkpt lat="44.59184" lon="0.88295">
        <ele>152.99</ele>
        <time>2012-12-23T10:42:09Z</time>
      </trkpt>
      <trkpt lat="44.59236" lon="0.88307">
        <ele>151.54</ele>
        <time>2012-12-23T10:42:19Z</time>
      </trkpt>
      <trkpt lat="44.59249" lon="0.88314">
        <ele>152.03</ele>
        <time>2012-12-23T10:42:22Z</time>
      </trkpt>
      <trkpt lat="44.59309" lon="0.88384">
        <ele>153.95</ele>
        <time>2012-12-23T10:42:38Z</time>
      </trkpt>
      <trkpt lat="44.59326" lon="0.88473">
        <ele>153.95</ele>
        <time>2012-12-23T10:42:55Z</time>
      </trkpt>
      <trkpt lat="44.59331" lon="0.88544">
        <ele>157.79</ele>
        <time>2012-12-23T10:43:09Z</time>
      </trkpt>
      <trkpt lat="44.59343" lon="0.88571">
        <ele>161.64</ele>
        <time>2012-12-23T10:43:20Z</time>
      </trkpt>
      <trkpt lat="44.59351" lon="0.88586">
        <ele>164.04</ele>
        <time>2012-12-23T10:43:26Z</time>
      </trkpt>
      <trkpt lat="44.59359" lon="0.88602">
        <ele>164.52</ele>
        <time>2012-12-23T10:43:32Z</time>
      </trkpt>
      <trkpt lat="44.59362" lon="0.88608">
        <ele>165.96</ele>
        <time>2012-12-23T10:43:36Z</time>
      </trkpt>
      <trkpt lat="44.59376" lon="0.88645">
        <ele>171.73</ele>
        <time>2012-12-23T10:43:50Z</time>
      </trkpt>
      <trkpt lat="44.59399" lon="0.88689">
        <ele>170.77</ele>
        <time>2012-12-23T10:44:00Z</time>
      </trkpt>
      <trkpt lat="44.59411" lon="0.88711">
        <ele>170.77</ele>
        <time>2012-12-23T10:44:04Z</time>
      </trkpt>
      <trkpt lat="44.59419" lon="0.88729">
        <ele>172.21</ele>
        <time>2012-12-23T10:44:07Z</time>
      </trkpt>
      <trkpt lat="44.59439" lon="0.8876">
        <ele>171.73</ele>
        <time>2012-12-23T10:44:12Z</time>
      </trkpt>
      <trkpt lat="44.59469" lon="0.88785">
        <ele>168.37</ele>
        <time>2012-12-23T10:44:18Z</time>
      </trkpt>
      <trkpt lat="44.59483" lon="0.8881">
        <ele>167.89</ele>
        <time>2012-12-23T10:44:22Z</time>
      </trkpt>
      <trkpt lat="44.59513" lon="0.88848">
        <ele>171.25</ele>
        <time>2012-12-23T10:44:33Z</time>
      </trkpt>
      <trkpt lat="44.59542" lon="0.88893">
        <ele>173.17</ele>
        <time>2012-12-23T10:44:44Z</time>
      </trkpt>
      <trkpt lat="44.59561" lon="0.88922">
        <ele>175.58</ele>
        <time>2012-12-23T10:44:55Z</time>
      </trkpt>
      <trkpt lat="44.59581" lon="0.88962">
        <ele>177.02</ele>
        <time>2012-12-23T10:45:08Z</time>
      </trkpt>
      <trkpt lat="44.59611" lon="0.89023">
        <ele>177.98</ele>
        <time>2012-12-23T10:45:25Z</time>
      </trkpt>
      <trkpt lat="44.59632" lon="0.89063">
        <ele>178.94</ele>
        <time>2012-12-23T10:45:38Z</time>
      </trkpt>
      <trkpt lat="44.59632" lon="0.89063">
        <ele>178.94</ele>
        <time>2012-12-23T10:45:52Z</time>
      </trkpt>
      <trkpt lat="44.59633" lon="0.89065">
        <ele>179.9</ele>
        <time>2012-12-23T10:46:10Z</time>
      </trkpt>
      <trkpt lat="44.59634" lon="0.89064">
        <ele>178.46</ele>
        <time>2012-12-23T10:46:33Z</time>
      </trkpt>
      <trkpt lat="44.59633" lon="0.89062">
        <ele>177.5</ele>
        <time>2012-12-23T10:46:51Z</time>
      </trkpt>
      <trkpt lat="44.59634" lon="0.89064">
        <ele>177.98</ele>
        <time>2012-12-23T10:47:10Z</time>
      </trkpt>
      <trkpt lat="44.59636" lon="0.89073">
        <ele>177.5</ele>
        <time>2012-12-23T10:47:18Z</time>
      </trkpt>
      <trkpt lat="44.59666" lon="0.89118">
        <ele>172.21</ele>
        <time>2012-12-23T10:47:25Z</time>
      </trkpt>
      <trkpt lat="44.59751" lon="0.89189">
        <ele>164.52</ele>
        <time>2012-12-23T10:47:35Z</time>
      </trkpt>
      <trkpt lat="44.59779" lon="0.89233">
        <ele>164.04</ele>
        <time>2012-12-23T10:47:40Z</time>
      </trkpt>
      <trkpt lat="44.59859" lon="0.89332">
        <ele>165.48</ele>
        <time>2012-12-23T10:47:53Z</time>
      </trkpt>
      <trkpt lat="44.59933" lon="0.89413">
        <ele>170.29</ele>
        <time>2012-12-23T10:48:05Z</time>
      </trkpt>
      <trkpt lat="44.59972" lon="0.89459">
        <ele>169.33</ele>
        <time>2012-12-23T10:48:13Z</time>
      </trkpt>
      <trkpt lat="44.59997" lon="0.89471">
        <ele>168.85</ele>
        <time>2012-12-23T10:48:17Z</time>
      </trkpt>
      <trkpt lat="44.60033" lon="0.89475">
        <ele>167.41</ele>
        <time>2012-12-23T10:48:22Z</time>
      </trkpt>
      <trkpt lat="44.6006" lon="0.89492">
        <ele>166.93</ele>
        <time>2012-12-23T10:48:27Z</time>
      </trkpt>
      <trkpt lat="44.60056" lon="0.89506">
        <ele>166.93</ele>
        <time>2012-12-23T10:48:31Z</time>
      </trkpt>
      <trkpt lat="44.60021" lon="0.89526">
        <ele>164.52</ele>
        <time>2012-12-23T10:48:38Z</time>
      </trkpt>
      <trkpt lat="44.60011" lon="0.89547">
        <ele>162.6</ele>
        <time>2012-12-23T10:48:42Z</time>
      </trkpt>
      <trkpt lat="44.60009" lon="0.89558">
        <ele>162.12</ele>
        <time>2012-12-23T10:48:44Z</time>
      </trkpt>
      <trkpt lat="44.59997" lon="0.89567">
        <ele>162.12</ele>
        <time>2012-12-23T10:48:54Z</time>
      </trkpt>
    </trkseg>
  </trk>
</gpx>